Observation data for Lomax on 05/04/2021      Previous  Date  Next       Current Mesonet Observations  Soil Data  Daily Summary Page  Observations in Plain Language
KLO1 040500Z 01016KT 15/10 A2989 RMK A01 T01490095  RH  070%=      5-min Rain = 0
KLO1 040501Z 36016G23KT 15/10 A2989 RMK A01 T01490095  RH  070%=      5-min Rain = 0
KLO1 040502Z 01017G23KT 15/09 A2989 RMK A01 T01480094  RH  070%=      5-min Rain = 0
KLO1 040503Z 01014KT 15/10 A2989 RMK A01 T01480095  RH  071%=      5-min Rain = 0
KLO1 040504Z 00020KT 15/10 A2989 RMK A01 T01470095  RH  071%=      5-min Rain = 0
KLO1 040505Z 00016G21KT 15/09 A299 RMK A01 T01470094  RH  070%=      5-min Rain = 0
KLO1 040506Z 00015KT 15/09 A299 RMK A01 T01480094  RH  070%=      5-min Rain = 0
KLO1 040507Z 01016KT 15/09 A299 RMK A01 T01470094  RH  071%=      5-min Rain = 0
KLO1 040508Z 36014KT 15/10 A299 RMK A01 T01470095  RH  071%=      5-min Rain = 0
KLO1 040509Z 00012KT 15/10 A299 RMK A01 T01470095  RH  071%=      5-min Rain = 0
KLO1 040510Z 00013G19KT 15/10 A299 RMK A01 T01460095  RH  071%=      5-min Rain = 0
KLO1 040511Z 36013KT 15/10 A299 RMK A01 T01460096  RH  072%=      5-min Rain = 0
KLO1 040512Z 36012KT 15/10 A2991 RMK A01 T01460096  RH  072%=      5-min Rain = 0
KLO1 040513Z 00012KT 15/10 A2991 RMK A01 T01450097  RH  072%=      5-min Rain = 0
KLO1 040514Z 36011KT 15/10 A2991 RMK A01 T01450097  RH  073%=      5-min Rain = 0
KLO1 040515Z 35010KT 15/10 A2991 RMK A01 T01450097  RH  073%=      5-min Rain = 0
KLO1 040516Z 35010KT 14/10 A2991 RMK A01 T01440097  RH  073%=      5-min Rain = 0
KLO1 040517Z 00010KT 14/10 A2991 RMK A01 T01440097  RH  073%=      5-min Rain = 0
KLO1 040518Z 36011KT 14/10 A2991 RMK A01 T01440097  RH  073%=      5-min Rain = 0
KLO1 040519Z 35010KT 14/10 A2991 RMK A01 T01440097  RH  074%=      5-min Rain = 0
KLO1 040520Z 36011KT 14/10 A2991 RMK A01 T01430097  RH  074%=      5-min Rain = 0
KLO1 040521Z 35012KT 14/10 A299 RMK A01 T01430097  RH  074%=      5-min Rain = 0
KLO1 040522Z 01015KT 14/10 A299 RMK A01 T01430097  RH  074%=      5-min Rain = 0
KLO1 040523Z 01015KT 14/10 A299 RMK A01 T01430096  RH  074%=      5-min Rain = 0
KLO1 040524Z 00014KT 14/10 A299 RMK A01 T01430097  RH  074%=      5-min Rain = 0
KLO1 040525Z 01012KT 14/10 A299 RMK A01 T01420097  RH  074%=      5-min Rain = 0
KLO1 040526Z 00012KT 14/10 A299 RMK A01 T01420097  RH  074%=      5-min Rain = 0
KLO1 040527Z 00013KT 14/10 A299 RMK A01 T01420097  RH  074%=      5-min Rain = 0
KLO1 040528Z 00012KT 14/10 A299 RMK A01 T01410097  RH  075%=      5-min Rain = 0
KLO1 040529Z 36011KT 14/10 A299 RMK A01 T01410097  RH  075%=      5-min Rain = 0
KLO1 040530Z 35014KT 14/10 A299 RMK A01 T01410097  RH  075%=      5-min Rain = 0
KLO1 040531Z 36014KT 14/10 A299 RMK A01 T01410097  RH  075%=      5-min Rain = 0
KLO1 040532Z 36012G18KT 14/10 A299 RMK A01 T01410097  RH  074%=      5-min Rain = 0
KLO1 040533Z 35013G19KT 14/10 A299 RMK A01 T01410097  RH  075%=      5-min Rain = 0
KLO1 040534Z 35013KT 14/10 A299 RMK A01 T01410096  RH  074%=      5-min Rain = 0
KLO1 040535Z 36013KT 14/10 A299 RMK A01 T01410096  RH  074%=      5-min Rain = 0
KLO1 040536Z 35014G19KT 14/10 A299 RMK A01 T01410096  RH  074%=      5-min Rain = 0
KLO1 040537Z 00012KT 14/10 A299 RMK A01 T01400095  RH  074%=      5-min Rain = 0
KLO1 040538Z 00014G19KT 14/10 A299 RMK A01 T01400095  RH  074%=      5-min Rain = 0
KLO1 040539Z 00015KT 14/10 A2991 RMK A01 T01400095  RH  074%=      5-min Rain = 0
KLO1 040540Z 35012KT 14/10 A2991 RMK A01 T01400095  RH  074%=      5-min Rain = 0
KLO1 040541Z 36011KT 14/10 A2991 RMK A01 T01400095  RH  075%=      5-min Rain = 0
KLO1 040542Z 36013KT 14/10 A2991 RMK A01 T01400096  RH  075%=      5-min Rain = 0
KLO1 040543Z 00011KT 14/10 A2991 RMK A01 T01390095  RH  075%=      5-min Rain = 0
KLO1 040544Z 00012KT 14/10 A2991 RMK A01 T01390096  RH  075%=      5-min Rain = 0
KLO1 040545Z 36010KT 14/10 A2991 RMK A01 T01390096  RH  075%=      5-min Rain = 0
KLO1 040546Z 36011KT 14/10 A2991 RMK A01 T01380096  RH  075%=      5-min Rain = 0
KLO1 040547Z 35013KT 14/10 A2991 RMK A01 T01380095  RH  075%=      5-min Rain = 0
KLO1 040548Z 36012KT 14/10 A2991 RMK A01 T01380095  RH  075%=      5-min Rain = 0
KLO1 040549Z 00011KT 14/10 A2991 RMK A01 T01380095  RH  075%=      5-min Rain = 0
KLO1 040550Z 35011KT 14/10 A2991 RMK A01 T01380096  RH  075%=      5-min Rain = 0
KLO1 040551Z 00013KT 14/10 A2992 RMK A01 T01380095  RH  075%=      5-min Rain = 0
KLO1 040552Z 36012KT 14/10 A2992 RMK A01 T01380095  RH  075%=      5-min Rain = 0
KLO1 040553Z 35010KT 14/10 A2992 RMK A01 T01380095  RH  075%=      5-min Rain = 0
KLO1 040554Z 36011KT 14/10 A2992 RMK A01 T01380095  RH  075%=      5-min Rain = 0
KLO1 040555Z 36009KT 14/10 A2992 RMK A01 T01380095  RH  075%=      5-min Rain = 0
KLO1 040556Z 35012KT 14/10 A2992 RMK A01 T01370095  RH  075%=      5-min Rain = 0
KLO1 040557Z 35015KT 14/09 A2992 RMK A01 T01370094  RH  075%=      5-min Rain = 0
KLO1 040558Z 36014G21KT 14/09 A2992 RMK A01 T01380093  RH  074%=      5-min Rain = 0
KLO1 040559Z 35013G20KT 14/09 A2993 RMK A01 T01380092  RH  074%=      5-min Rain = 0
KLO1 040600Z 36014G20KT 14/09 A2993 RMK A01 T01380093  RH  074%=      5-min Rain = 0
KLO1 040601Z 36012KT 14/09 A2993 RMK A01 T01380093  RH  074%=      5-min Rain = 0
KLO1 040602Z 35014KT 14/09 A2993 RMK A01 T01380093  RH  074%=      5-min Rain = 0
KLO1 040603Z 35011KT 14/09 A2993 RMK A01 T01380092  RH  074%=      5-min Rain = 0
KLO1 040604Z 36011KT 14/09 A2993 RMK A01 T01380093  RH  074%=      5-min Rain = 0
KLO1 040605Z 35012KT 14/09 A2993 RMK A01 T01370093  RH  074%=      5-min Rain = 0
KLO1 040606Z 35015G21KT 14/09 A2993 RMK A01 T01380092  RH  074%=      5-min Rain = 0
KLO1 040607Z 35014G19KT 14/09 A2993 RMK A01 T01370092  RH  074%=      5-min Rain = 0
KLO1 040608Z 35012KT 14/09 A2993 RMK A01 T01380092  RH  074%=      5-min Rain = 0
KLO1 040609Z 35012G19KT 14/09 A2993 RMK A01 T01370092  RH  074%=      5-min Rain = 0
KLO1 040610Z 35014KT 14/09 A2993 RMK A01 T01370092  RH  074%=      5-min Rain = 0
KLO1 040611Z 35011KT 14/09 A2993 RMK A01 T01370091  RH  074%=      5-min Rain = 0
KLO1 040612Z 35013G18KT 14/09 A2993 RMK A01 T01370091  RH  074%=      5-min Rain = 0
KLO1 040613Z 35014KT 14/09 A2993 RMK A01 T01370091  RH  074%=      5-min Rain = 0
KLO1 040614Z 35012KT 14/09 A2993 RMK A01 T01370091  RH  074%=      5-min Rain = 0
KLO1 040615Z 35012KT 14/09 A2993 RMK A01 T01360092  RH  074%=      5-min Rain = 0
KLO1 040616Z 34013KT 14/09 A2993 RMK A01 T01360092  RH  074%=      5-min Rain = 0
KLO1 040617Z 35013KT 14/09 A2993 RMK A01 T01360091  RH  074%=      5-min Rain = 0
KLO1 040618Z 35012KT 14/09 A2993 RMK A01 T01360091  RH  074%=      5-min Rain = 0
KLO1 040619Z 35014KT 14/09 A2994 RMK A01 T01360091  RH  074%=      5-min Rain = 0
KLO1 040620Z 35014G19KT 14/09 A2994 RMK A01 T01360091  RH  074%=      5-min Rain = 0
KLO1 040621Z 35014KT 14/09 A2994 RMK A01 T01360090  RH  074%=      5-min Rain = 0
KLO1 040622Z 34016KT 14/09 A2994 RMK A01 T01360091  RH  074%=      5-min Rain = 0
KLO1 040623Z 34015KT 14/09 A2994 RMK A01 T01360091  RH  074%=      5-min Rain = 0
KLO1 040624Z 34014KT 14/09 A2994 RMK A01 T01360091  RH  074%=      5-min Rain = 0
KLO1 040625Z 35013KT 14/09 A2994 RMK A01 T01360091  RH  074%=      5-min Rain = 0
KLO1 040626Z 34014KT 14/09 A2994 RMK A01 T01360091  RH  074%=      5-min Rain = 0
KLO1 040627Z 35013KT 14/09 A2994 RMK A01 T01360091  RH  074%=      5-min Rain = 0
KLO1 040628Z 36012KT 14/09 A2994 RMK A01 T01360091  RH  074%=      5-min Rain = 0
KLO1 040629Z 35011KT 14/09 A2994 RMK A01 T01350091  RH  074%=      5-min Rain = 0
KLO1 040630Z 35012KT 14/09 A2994 RMK A01 T01350090  RH  074%=      5-min Rain = 0
KLO1 040631Z 35012KT 14/09 A2994 RMK A01 T01360091  RH  074%=      5-min Rain = 0
KLO1 040632Z 35014G19KT 14/09 A2994 RMK A01 T01360091  RH  074%=      5-min Rain = 0
KLO1 040633Z 34013KT 14/09 A2994 RMK A01 T01360091  RH  074%=      5-min Rain = 0
KLO1 040634Z 35012KT 14/09 A2994 RMK A01 T01360091  RH  074%=      5-min Rain = 0
KLO1 040635Z 35011KT 14/09 A2993 RMK A01 T01350091  RH  075%=      5-min Rain = 0
KLO1 040636Z 35010KT 14/09 A2993 RMK A01 T01350091  RH  075%=      5-min Rain = 0
KLO1 040637Z 35011KT 14/09 A2993 RMK A01 T01350091  RH  075%=      5-min Rain = 0
KLO1 040638Z 36012KT 14/09 A2993 RMK A01 T01350091  RH  075%=      5-min Rain = 0
KLO1 040639Z 35011KT 14/09 A2993 RMK A01 T01350090  RH  074%=      5-min Rain = 0
KLO1 040640Z 35012KT 14/09 A2993 RMK A01 T01350090  RH  074%=      5-min Rain = 0
KLO1 040641Z 35010KT 14/09 A2993 RMK A01 T01350090  RH  075%=      5-min Rain = 0
KLO1 040642Z 35011KT 14/09 A2993 RMK A01 T01350091  RH  075%=      5-min Rain = 0
KLO1 040643Z 34011KT 14/09 A2993 RMK A01 T01350091  RH  075%=      5-min Rain = 0
KLO1 040644Z 35013KT 14/09 A2993 RMK A01 T01350090  RH  074%=      5-min Rain = 0
KLO1 040645Z 34013KT 14/09 A2994 RMK A01 T01350090  RH  075%=      5-min Rain = 0
KLO1 040646Z 34014KT 14/09 A2994 RMK A01 T01350091  RH  075%=      5-min Rain = 0
KLO1 040647Z 34013KT 14/09 A2994 RMK A01 T01350090  RH  075%=      5-min Rain = 0
KLO1 040648Z 34013KT 14/09 A2994 RMK A01 T01350090  RH  075%=      5-min Rain = 0
KLO1 040649Z 34012KT 14/09 A2994 RMK A01 T01350091  RH  075%=      5-min Rain = 0
KLO1 040650Z 34012KT 14/09 A2994 RMK A01 T01350091  RH  075%=      5-min Rain = 0
KLO1 040651Z 34013KT 14/09 A2994 RMK A01 T01350090  RH  074%=      5-min Rain = 0
KLO1 040652Z 34013KT 14/09 A2994 RMK A01 T01350090  RH  075%=      5-min Rain = 0
KLO1 040653Z 34013KT 13/09 A2994 RMK A01 T01340090  RH  075%=      5-min Rain = 0
KLO1 040654Z 34013KT 14/09 A2994 RMK A01 T01350091  RH  075%=      5-min Rain = 0
KLO1 040655Z 34012KT 14/09 A2994 RMK A01 T01350091  RH  075%=      5-min Rain = 0
KLO1 040656Z 34012KT 14/09 A2994 RMK A01 T01350091  RH  075%=      5-min Rain = 0
KLO1 040657Z 34013KT 14/09 A2994 RMK A01 T01350091  RH  075%=      5-min Rain = 0
KLO1 040658Z 34015KT 14/09 A2994 RMK A01 T01350091  RH  075%=      5-min Rain = 0
KLO1 040659Z 34012KT 14/09 A2994 RMK A01 T01350090  RH  074%=      5-min Rain = 0
KLO1 040700Z 34012KT 14/09 A2994 RMK A01 T01360091  RH  075%=      5-min Rain = 0
KLO1 040701Z 34013KT 14/09 A2994 RMK A01 T01360091  RH  075%=      5-min Rain = 0
KLO1 040702Z 34014KT 14/09 A2994 RMK A01 T01360092  RH  075%=      5-min Rain = 0
KLO1 040703Z 34012KT 14/09 A2994 RMK A01 T01350091  RH  075%=      5-min Rain = 0
KLO1 040704Z 34012KT 14/09 A2994 RMK A01 T01360092  RH  075%=      5-min Rain = 0
KLO1 040705Z 34011KT 14/09 A2994 RMK A01 T01360092  RH  075%=      5-min Rain = 0
KLO1 040706Z 34011KT 14/09 A2994 RMK A01 T01360093  RH  075%=      5-min Rain = 0
KLO1 040707Z 34012KT 14/09 A2994 RMK A01 T01360093  RH  075%=      5-min Rain = 0
KLO1 040708Z 35013KT 14/09 A2994 RMK A01 T01350091  RH  075%=      5-min Rain = 0
KLO1 040709Z 34012KT 14/09 A2994 RMK A01 T01350091  RH  075%=      5-min Rain = 0
KLO1 040710Z 34011KT 14/09 A2995 RMK A01 T01350091  RH  074%=      5-min Rain = 0
KLO1 040711Z 34014KT 14/09 A2995 RMK A01 T01360091  RH  074%=      5-min Rain = 0
KLO1 040712Z 35011KT 14/09 A2995 RMK A01 T01360091  RH  074%=      5-min Rain = 0
KLO1 040713Z 35012KT 14/09 A2995 RMK A01 T01360091  RH  074%=      5-min Rain = 0
KLO1 040714Z 35012KT 14/09 A2995 RMK A01 T01360091  RH  074%=      5-min Rain = 0
KLO1 040715Z 35011KT 14/09 A2995 RMK A01 T01360091  RH  074%=      5-min Rain = 0
KLO1 040716Z 35010KT 14/09 A2995 RMK A01 T01360091  RH  074%=      5-min Rain = 0
KLO1 040717Z 35011KT 14/09 A2995 RMK A01 T01360091  RH  074%=      5-min Rain = 0
KLO1 040718Z 36012KT 14/09 A2995 RMK A01 T01360091  RH  074%=      5-min Rain = 0
KLO1 040719Z 35011KT 14/09 A2994 RMK A01 T01360090  RH  074%=      5-min Rain = 0
KLO1 040720Z 35012KT 14/09 A2994 RMK A01 T01360090  RH  074%=      5-min Rain = 0
KLO1 040721Z 35011KT 14/09 A2994 RMK A01 T01360090  RH  074%=      5-min Rain = 0
KLO1 040722Z 36010KT 14/09 A2994 RMK A01 T01360090  RH  074%=      5-min Rain = 0
KLO1 040723Z 35011KT 14/09 A2994 RMK A01 T01360091  RH  074%=      5-min Rain = 0
KLO1 040724Z 36010KT 14/09 A2994 RMK A01 T01360090  RH  074%=      5-min Rain = 0
KLO1 040725Z 34010KT 14/09 A2994 RMK A01 T01360090  RH  074%=      5-min Rain = 0
KLO1 040726Z 35010G15KT 14/09 A2994 RMK A01 T01360090  RH  074%=      5-min Rain = 0
KLO1 040727Z 35009KT 14/09 A2994 RMK A01 T01360091  RH  074%=      5-min Rain = 0
KLO1 040728Z 35009KT 14/09 A2994 RMK A01 T01360091  RH  074%=      5-min Rain = 0
KLO1 040729Z 35012KT 14/09 A2994 RMK A01 T01360091  RH  074%=      5-min Rain = 0
KLO1 040730Z 35012KT 14/09 A2994 RMK A01 T01360091  RH  074%=      5-min Rain = 0
KLO1 040731Z 35012G17KT 14/09 A2994 RMK A01 T01360091  RH  074%=      5-min Rain = 0
KLO1 040732Z 35012KT 14/09 A2994 RMK A01 T01360090  RH  074%=      5-min Rain = 0
KLO1 040733Z 36013KT 14/09 A2994 RMK A01 T01360090  RH  074%=      5-min Rain = 0
KLO1 040734Z 35011KT 14/09 A2995 RMK A01 T01360090  RH  074%=      5-min Rain = 0
KLO1 040735Z 35012KT 14/09 A2995 RMK A01 T01360091  RH  074%=      5-min Rain = 0
KLO1 040736Z 36013KT 14/09 A2995 RMK A01 T01360090  RH  074%=      5-min Rain = 0
KLO1 040737Z 36010KT 14/09 A2995 RMK A01 T01360090  RH  074%=      5-min Rain = 0
KLO1 040738Z 35012KT 14/09 A2995 RMK A01 T01360090  RH  074%=      5-min Rain = 0
KLO1 040739Z 35012KT 14/09 A2995 RMK A01 T01360090  RH  074%=      5-min Rain = 0
KLO1 040740Z 36009KT 14/09 A2995 RMK A01 T01360090  RH  074%=      5-min Rain = 0
KLO1 040741Z 35010KT 14/09 A2995 RMK A01 T01360091  RH  074%=      5-min Rain = 0
KLO1 040742Z 00010KT 14/09 A2995 RMK A01 T01360091  RH  074%=      5-min Rain = 0
KLO1 040743Z 36010KT 14/09 A2995 RMK A01 T01360091  RH  074%=      5-min Rain = 0
KLO1 040744Z 36009KT 14/09 A2995 RMK A01 T01360090  RH  074%=      5-min Rain = 0
KLO1 040745Z 36010KT 14/09 A2995 RMK A01 T01360090  RH  074%=      5-min Rain = 0
KLO1 040746Z 36008KT 14/09 A2995 RMK A01 T01360091  RH  074%=      5-min Rain = 0
KLO1 040747Z 35009KT 14/09 A2996 RMK A01 T01360091  RH  074%=      5-min Rain = 0
KLO1 040748Z 36010KT 14/09 A2996 RMK A01 T01360090  RH  074%=      5-min Rain = 0
KLO1 040749Z 35010KT 14/09 A2996 RMK A01 T01360090  RH  074%=      5-min Rain = 0
KLO1 040750Z 35008KT 14/09 A2996 RMK A01 T01360091  RH  074%=      5-min Rain = 0
KLO1 040751Z 34009KT 14/09 A2996 RMK A01 T01350091  RH  075%=      5-min Rain = 0
KLO1 040752Z 35010KT 14/09 A2996 RMK A01 T01350091  RH  075%=      5-min Rain = 0
KLO1 040753Z 35010KT 14/09 A2996 RMK A01 T01350091  RH  075%=      5-min Rain = 0
KLO1 040754Z 35010KT 14/09 A2996 RMK A01 T01350091  RH  075%=      5-min Rain = 0
KLO1 040755Z 34008KT 14/09 A2996 RMK A01 T01350091  RH  075%=      5-min Rain = 0
KLO1 040756Z 34008KT 14/09 A2996 RMK A01 T01350093  RH  075%=      5-min Rain = 0
KLO1 040757Z 34009KT 13/09 A2996 RMK A01 T01340092  RH  075%=      5-min Rain = 0
KLO1 040758Z 34010KT 13/09 A2996 RMK A01 T01340092  RH  075%=      5-min Rain = 0
KLO1 040759Z 35011KT 13/09 A2996 RMK A01 T01340091  RH  075%=      5-min Rain = 0
KLO1 040800Z 34010KT 13/09 A2996 RMK A01 T01340091  RH  075%=      5-min Rain = 0
KLO1 040801Z 35009KT 13/09 A2997 RMK A01 T01340092  RH  075%=      5-min Rain = 0
KLO1 040802Z 34008KT 13/09 A2997 RMK A01 T01340092  RH  075%=      5-min Rain = 0
KLO1 040803Z 35008KT 13/09 A2997 RMK A01 T01340092  RH  076%=      5-min Rain = 0
KLO1 040804Z 35009KT 13/09 A2997 RMK A01 T01340092  RH  076%=      5-min Rain = 0
KLO1 040805Z 35010KT 13/09 A2997 RMK A01 T01340092  RH  076%=      5-min Rain = 0
KLO1 040806Z 35008KT 13/09 A2998 RMK A01 T01340091  RH  075%=      5-min Rain = 0
KLO1 040807Z 34010KT 13/09 A2998 RMK A01 T01340092  RH  076%=      5-min Rain = 0
KLO1 040808Z 35010KT 13/09 A2998 RMK A01 T01340091  RH  075%=      5-min Rain = 0
KLO1 040809Z 36008KT 13/09 A2998 RMK A01 T01340091  RH  075%=      5-min Rain = 0
KLO1 040810Z 35009KT 13/09 A2998 RMK A01 T01340091  RH  075%=      5-min Rain = 0
KLO1 040811Z 35009KT 13/09 A2998 RMK A01 T01340091  RH  075%=      5-min Rain = 0
KLO1 040812Z 35010KT 13/09 A2998 RMK A01 T01340092  RH  076%=      5-min Rain = 0
KLO1 040813Z 35009KT 13/09 A2998 RMK A01 T01340091  RH  075%=      5-min Rain = 0
KLO1 040814Z 35011KT 13/09 A2998 RMK A01 T01340091  RH  076%=      5-min Rain = 0
KLO1 040815Z 35008KT 13/09 A2998 RMK A01 T01340091  RH  075%=      5-min Rain = 0
KLO1 040816Z 35011KT 13/09 A2998 RMK A01 T01340092  RH  076%=      5-min Rain = 0
KLO1 040817Z 35008KT 13/09 A2998 RMK A01 T01340091  RH  075%=      5-min Rain = 0
KLO1 040818Z 36010KT 13/09 A2998 RMK A01 T01340092  RH  076%=      5-min Rain = 0
KLO1 040819Z 35009KT 13/09 A2998 RMK A01 T01340092  RH  076%=      5-min Rain = 0
KLO1 040820Z 36010KT 13/09 A2998 RMK A01 T01330092  RH  076%=      5-min Rain = 0
KLO1 040821Z 00012KT 13/09 A2998 RMK A01 T01330091  RH  076%=      5-min Rain = 0
KLO1 040822Z 00010KT 13/09 A2998 RMK A01 T01330091  RH  076%=      5-min Rain = 0
KLO1 040823Z 00010KT 13/09 A2998 RMK A01 T01330091  RH  076%=      5-min Rain = 0
KLO1 040824Z 00012KT 13/09 A2998 RMK A01 T01330091  RH  076%=      5-min Rain = 0
KLO1 040825Z 00010KT 13/09 A2998 RMK A01 T01330091  RH  076%=      5-min Rain = 0
KLO1 040826Z 00011KT 13/09 A2998 RMK A01 T01330091  RH  076%=      5-min Rain = 0
KLO1 040827Z 01010KT 13/09 A2998 RMK A01 T01330091  RH  076%=      5-min Rain = 0
KLO1 040828Z 01009KT 13/09 A2998 RMK A01 T01330091  RH  076%=      5-min Rain = 0
KLO1 040829Z 01009KT 13/09 A2998 RMK A01 T01330092  RH  076%=      5-min Rain = 0
KLO1 040830Z 01011KT 13/09 A2998 RMK A01 T01320092  RH  077%=      5-min Rain = 0
KLO1 040831Z 01009KT 13/09 A2998 RMK A01 T01320092  RH  077%=      5-min Rain = 0
KLO1 040832Z 01009KT 13/09 A2998 RMK A01 T01320092  RH  077%=      5-min Rain = 0
KLO1 040833Z 01009KT 13/09 A2998 RMK A01 T01320093  RH  077%=      5-min Rain = 0
KLO1 040834Z 01008KT 13/09 A2998 RMK A01 T01310093  RH  077%=      5-min Rain = 0
KLO1 040835Z 01008KT 13/09 A2998 RMK A01 T01310093  RH  078%=      5-min Rain = 0
KLO1 040836Z 01009KT 13/09 A2998 RMK A01 T01300093  RH  078%=      5-min Rain = 0
KLO1 040837Z 01009KT 13/09 A2998 RMK A01 T01300093  RH  078%=      5-min Rain = 0
KLO1 040838Z 01008KT 13/09 A2998 RMK A01 T01300094  RH  078%=      5-min Rain = 0
KLO1 040839Z 01010KT 13/09 A2998 RMK A01 T01300094  RH  078%=      5-min Rain = 0
KLO1 040840Z 01010KT 13/09 A2998 RMK A01 T01300093  RH  078%=      5-min Rain = 0
KLO1 040841Z 00008KT 13/09 A2998 RMK A01 T01310093  RH  078%=      5-min Rain = 0
KLO1 040842Z 00011KT 13/09 A2998 RMK A01 T01310093  RH  078%=      5-min Rain = 0
KLO1 040843Z 01012KT 13/09 A2998 RMK A01 T01310092  RH  077%=      5-min Rain = 0
KLO1 040844Z 00010KT 13/09 A2998 RMK A01 T01310092  RH  077%=      5-min Rain = 0
KLO1 040845Z 01010KT 13/09 A2998 RMK A01 T01310092  RH  077%=      5-min Rain = 0
KLO1 040846Z 00010KT 13/09 A2998 RMK A01 T01310093  RH  078%=      5-min Rain = 0
KLO1 040847Z 01009KT 13/09 A2998 RMK A01 T01310093  RH  078%=      5-min Rain = 0
KLO1 040848Z 00010KT 13/09 A2998 RMK A01 T01310093  RH  078%=      5-min Rain = 0
KLO1 040849Z 00012KT 13/09 A2998 RMK A01 T01300093  RH  078%=      5-min Rain = 0
KLO1 040850Z 00010KT 13/09 A2998 RMK A01 T01310093  RH  078%=      5-min Rain = 0
KLO1 040851Z 36011KT 13/09 A2998 RMK A01 T01310092  RH  078%=      5-min Rain = 0
KLO1 040852Z 00009KT 13/09 A2998 RMK A01 T01300092  RH  077%=      5-min Rain = 0
KLO1 040853Z 00010KT 13/09 A2999 RMK A01 T01300092  RH  077%=      5-min Rain = 0
KLO1 040854Z 00009KT 13/09 A2999 RMK A01 T01310092  RH  077%=      5-min Rain = 0
KLO1 040855Z 36010KT 13/09 A2999 RMK A01 T01300092  RH  077%=      5-min Rain = 0
KLO1 040856Z 00009KT 13/09 A2999 RMK A01 T01300092  RH  077%=      5-min Rain = 0
KLO1 040857Z 36008KT 13/09 A30 RMK A01 T01300092  RH  077%=      5-min Rain = 0
KLO1 040858Z 00009KT 13/09 A30 RMK A01 T01300092  RH  078%=      5-min Rain = 0
KLO1 040859Z 00009KT 13/09 A30 RMK A01 T01300092  RH  078%=      5-min Rain = 0
KLO1 040900Z 00009KT 13/09 A30 RMK A01 T01300092  RH  078%=      5-min Rain = 0
KLO1 040901Z 01008KT 13/09 A30 RMK A01 T01310093  RH  078%=      5-min Rain = 0
KLO1 040902Z 00010KT 13/09 A30 RMK A01 T01300093  RH  078%=      5-min Rain = 0
KLO1 040903Z 00009KT 13/09 A30 RMK A01 T01300093  RH  078%=      5-min Rain = 0
KLO1 040904Z 36009KT 13/09 A30 RMK A01 T01300093  RH  078%=      5-min Rain = 0
KLO1 040905Z 00008KT 13/09 A30 RMK A01 T01300093  RH  078%=      5-min Rain = 0
KLO1 040906Z 00008KT 13/09 A3001 RMK A01 T01300093  RH  078%=      5-min Rain = 0
KLO1 040907Z 36009KT 13/09 A3001 RMK A01 T01300093  RH  078%=      5-min Rain = 0
KLO1 040908Z 00008KT 13/09 A3001 RMK A01 T01300093  RH  078%=      5-min Rain = 0
KLO1 040909Z 36007KT 13/09 A3001 RMK A01 T01300093  RH  078%=      5-min Rain = 0
KLO1 040910Z 36007KT 13/09 A3001 RMK A01 T01300094  RH  079%=      5-min Rain = 0
KLO1 040911Z 36007KT 13/09 A3001 RMK A01 T01290094  RH  079%=      5-min Rain = 0
KLO1 040912Z 35008KT 13/09 A3001 RMK A01 T01290093  RH  079%=      5-min Rain = 0
KLO1 040913Z 00008KT 13/09 A3001 RMK A01 T01290093  RH  079%=      5-min Rain = 0
KLO1 040914Z 00007KT 13/09 A3001 RMK A01 T01290093  RH  079%=      5-min Rain = 0
KLO1 040915Z 01009KT 13/09 A3001 RMK A01 T01300094  RH  079%=      5-min Rain = 0
KLO1 040916Z 00009KT 13/09 A3001 RMK A01 T01290094  RH  079%=      5-min Rain = 0
KLO1 040917Z 00008KT 13/09 A3001 RMK A01 T01300094  RH  079%=      5-min Rain = 0
KLO1 040918Z 35007KT 13/09 A3001 RMK A01 T01300094  RH  079%=      5-min Rain = 0
KLO1 040919Z 36007KT 13/09 A3001 RMK A01 T01290094  RH  079%=      5-min Rain = 0
KLO1 040920Z 00006KT 13/09 A3001 RMK A01 T01300094  RH  079%=      5-min Rain = 0
KLO1 040921Z 01007KT 13/10 A3001 RMK A01 T01300095  RH  079%=      5-min Rain = 0
KLO1 040922Z 36006KT 13/09 A3001 RMK A01 T01290094  RH  079%=      5-min Rain = 0
KLO1 040923Z 00006KT 13/09 A3001 RMK A01 T01290094  RH  079%=      5-min Rain = 0
KLO1 040924Z 36005KT 13/09 A3001 RMK A01 T01290094  RH  079%=      5-min Rain = 0
KLO1 040925Z 35006KT 13/09 A3001 RMK A01 T01290094  RH  079%=      5-min Rain = 0
KLO1 040926Z 36004KT 13/09 A3001 RMK A01 T01290094  RH  079%=      5-min Rain = 0
KLO1 040927Z 34005KT 13/10 A3001 RMK A01 T01290096  RH  080%=      5-min Rain = 0
KLO1 040928Z 34005KT 13/10 A3001 RMK A01 T01290095  RH  080%=      5-min Rain = 0
KLO1 040929Z 34006KT 13/10 A3001 RMK A01 T01290095  RH  080%=      5-min Rain = 0
KLO1 040930Z 34005KT 13/10 A3001 RMK A01 T01290096  RH  080%=      5-min Rain = 0
KLO1 040931Z 34006KT 13/10 A3001 RMK A01 T01290096  RH  080%=      5-min Rain = 0
KLO1 040932Z 35006KT 13/10 A3001 RMK A01 T01290095  RH  080%=      5-min Rain = 0
KLO1 040933Z 35006KT 13/10 A3001 RMK A01 T01290095  RH  080%=      5-min Rain = 0
KLO1 040934Z 35005KT 13/10 A3001 RMK A01 T01290095  RH  080%=      5-min Rain = 0
KLO1 040935Z 35005KT 13/10 A3001 RMK A01 T01290095  RH  080%=      5-min Rain = 0
KLO1 040936Z 35007KT 13/10 A3001 RMK A01 T01290095  RH  080%=      5-min Rain = 0
KLO1 040937Z 34007KT 13/10 A3001 RMK A01 T01290095  RH  080%=      5-min Rain = 0
KLO1 040938Z 35008KT 13/10 A3002 RMK A01 T01300095  RH  080%=      5-min Rain = 0
KLO1 040939Z 35008KT 13/10 A3002 RMK A01 T01300095  RH  079%=      5-min Rain = 0
KLO1 040940Z 34008KT 13/10 A3002 RMK A01 T01300095  RH  079%=      5-min Rain = 0
KLO1 040941Z 34009KT 13/10 A3002 RMK A01 T01300095  RH  079%=      5-min Rain = 0
KLO1 040942Z 34010KT 13/10 A3002 RMK A01 T01310095  RH  079%=      5-min Rain = 0
KLO1 040943Z 34009KT 13/10 A3002 RMK A01 T01310095  RH  079%=      5-min Rain = 0
KLO1 040944Z 34008KT 13/10 A3002 RMK A01 T01320095  RH  079%=      5-min Rain = 0
KLO1 040945Z 35009KT 13/10 A3002 RMK A01 T01320095  RH  078%=      5-min Rain = 0
KLO1 040946Z 34009KT 13/10 A3002 RMK A01 T01320095  RH  078%=      5-min Rain = 0
KLO1 040947Z 35010KT 13/10 A3002 RMK A01 T01320095  RH  078%=      5-min Rain = 0
KLO1 040948Z 36009KT 13/10 A3002 RMK A01 T01320095  RH  078%=      5-min Rain = 0
KLO1 040949Z 35009KT 13/09 A3001 RMK A01 T01320094  RH  078%=      5-min Rain = 0
KLO1 040950Z 36010KT 13/09 A3001 RMK A01 T01320094  RH  078%=      5-min Rain = 0
KLO1 040951Z 35007KT 13/10 A3001 RMK A01 T01320095  RH  078%=      5-min Rain = 0
KLO1 040952Z 36008KT 13/10 A3001 RMK A01 T01310095  RH  079%=      5-min Rain = 0
KLO1 040953Z 00009KT 13/10 A3001 RMK A01 T01310095  RH  079%=      5-min Rain = 0
KLO1 040954Z 00008KT 13/10 A3001 RMK A01 T01310095  RH  079%=      5-min Rain = 0
KLO1 040955Z 36009KT 13/10 A3001 RMK A01 T01310095  RH  079%=      5-min Rain = 0
KLO1 040956Z 01009KT 13/10 A3001 RMK A01 T01310095  RH  079%=      5-min Rain = 0
KLO1 040957Z 00010KT 13/10 A3001 RMK A01 T01310095  RH  079%=      5-min Rain = 0
KLO1 040958Z 01010KT 13/10 A3001 RMK A01 T01310095  RH  079%=      5-min Rain = 0
KLO1 040959Z 36009KT 13/10 A3001 RMK A01 T01310095  RH  079%=      5-min Rain = 0
KLO1 041000Z 36010KT 13/10 A3001 RMK A01 T01310095  RH  079%=      5-min Rain = 0
KLO1 041001Z 00010KT 13/10 A3001 RMK A01 T01310095  RH  079%=      5-min Rain = 0
KLO1 041002Z 36008KT 13/10 A3001 RMK A01 T01300095  RH  079%=      5-min Rain = 0
KLO1 041003Z 35009KT 13/10 A3001 RMK A01 T01310096  RH  079%=      5-min Rain = 0
KLO1 041004Z 35009KT 13/10 A3001 RMK A01 T01300095  RH  079%=      5-min Rain = 0
KLO1 041005Z 00010KT 13/09 A3001 RMK A01 T01300094  RH  079%=      5-min Rain = 0
KLO1 041006Z 35008KT 13/10 A3001 RMK A01 T01300095  RH  079%=      5-min Rain = 0
KLO1 041007Z 35009KT 13/10 A3002 RMK A01 T01300095  RH  080%=      5-min Rain = 0
KLO1 041008Z 35009KT 13/10 A3002 RMK A01 T01300095  RH  079%=      5-min Rain = 0
KLO1 041009Z 35010KT 13/10 A3002 RMK A01 T01300095  RH  079%=      5-min Rain = 0
KLO1 041010Z 34010KT 13/10 A3002 RMK A01 T01300095  RH  079%=      5-min Rain = 0
KLO1 041011Z 36008KT 13/10 A3002 RMK A01 T01300095  RH  079%=      5-min Rain = 0
KLO1 041012Z 36008KT 13/10 A3002 RMK A01 T01300095  RH  079%=      5-min Rain = 0
KLO1 041013Z 36008KT 13/10 A3002 RMK A01 T01300095  RH  079%=      5-min Rain = 0
KLO1 041014Z 35010KT 13/09 A3002 RMK A01 T01300094  RH  079%=      5-min Rain = 0
KLO1 041015Z 35012KT 13/09 A3002 RMK A01 T01300094  RH  079%=      5-min Rain = 0
KLO1 041016Z 00010KT 13/09 A3002 RMK A01 T01300094  RH  079%=      5-min Rain = 0
KLO1 041017Z 01011KT 13/09 A3002 RMK A01 T01300094  RH  079%=      5-min Rain = 0
KLO1 041018Z 36011KT 13/09 A3002 RMK A01 T01300094  RH  079%=      5-min Rain = 0
KLO1 041019Z 00010KT 13/09 A3002 RMK A01 T01300094  RH  079%=      5-min Rain = 0
KLO1 041020Z 36008KT 13/10 A3002 RMK A01 T01300095  RH  079%=      5-min Rain = 0
KLO1 041021Z 36007KT 13/10 A3003 RMK A01 T01300095  RH  079%=      5-min Rain = 0
KLO1 041022Z 36005KT 13/10 A3003 RMK A01 T01300096  RH  080%=      5-min Rain = 0
KLO1 041023Z 36007KT 13/10 A3003 RMK A01 T01300096  RH  080%=      5-min Rain = 0
KLO1 041024Z 36008KT 13/10 A3003 RMK A01 T01300095  RH  079%=      5-min Rain = 0
KLO1 041025Z 36008KT 13/10 A3003 RMK A01 T01300095  RH  079%=      5-min Rain = 0
KLO1 041026Z 35007KT 13/10 A3003 RMK A01 T01300095  RH  079%=      5-min Rain = 0
KLO1 041027Z 35007KT 13/10 A3003 RMK A01 T01300096  RH  080%=      5-min Rain = 0
KLO1 041028Z 35008KT 13/10 A3003 RMK A01 T01300095  RH  079%=      5-min Rain = 0
KLO1 041029Z 35007KT 13/10 A3003 RMK A01 T01300095  RH  079%=      5-min Rain = 0
KLO1 041030Z 35010KT 13/10 A3003 RMK A01 T01300095  RH  079%=      5-min Rain = 0
KLO1 041031Z 35008KT 13/10 A3003 RMK A01 T01300095  RH  079%=      5-min Rain = 0
KLO1 041032Z 00009KT 13/10 A3003 RMK A01 T01300095  RH  079%=      5-min Rain = 0
KLO1 041033Z 36009KT 13/10 A3003 RMK A01 T01300095  RH  079%=      5-min Rain = 0
KLO1 041034Z 36009KT 13/10 A3004 RMK A01 T01300095  RH  079%=      5-min Rain = 0
KLO1 041035Z 35010KT 13/10 A3004 RMK A01 T01310095  RH  079%=      5-min Rain = 0
KLO1 041036Z 36008KT 13/09 A3004 RMK A01 T01300094  RH  079%=      5-min Rain = 0
KLO1 041037Z 36008KT 13/09 A3004 RMK A01 T01300094  RH  079%=      5-min Rain = 0
KLO1 041038Z 36008KT 13/09 A3004 RMK A01 T01310094  RH  079%=      5-min Rain = 0
KLO1 041039Z 35007KT 13/10 A3004 RMK A01 T01300095  RH  079%=      5-min Rain = 0
KLO1 041040Z 36007KT 13/10 A3004 RMK A01 T01310095  RH  079%=      5-min Rain = 0
KLO1 041041Z 35007KT 13/10 A3004 RMK A01 T01310095  RH  079%=      5-min Rain = 0
KLO1 041042Z 00008KT 13/09 A3004 RMK A01 T01300094  RH  079%=      5-min Rain = 0
KLO1 041043Z 35008KT 13/09 A3004 RMK A01 T01300094  RH  078%=      5-min Rain = 0
KLO1 041044Z 36010KT 13/09 A3004 RMK A01 T01310093  RH  078%=      5-min Rain = 0
KLO1 041045Z 00011KT 13/09 A3004 RMK A01 T01300093  RH  078%=      5-min Rain = 0
KLO1 041046Z 01009KT 13/09 A3004 RMK A01 T01310093  RH  078%=      5-min Rain = 0
KLO1 041047Z 35008KT 13/09 A3004 RMK A01 T01300093  RH  078%=      5-min Rain = 0
KLO1 041048Z 36009KT 13/09 A3004 RMK A01 T01310093  RH  078%=      5-min Rain = 0
KLO1 041049Z 35011KT 13/09 A3004 RMK A01 T01310093  RH  078%=      5-min Rain = 0
KLO1 041050Z 36012KT 13/09 A3004 RMK A01 T01300092  RH  077%=      5-min Rain = 0
KLO1 041051Z 36011KT 13/09 A3004 RMK A01 T01310093  RH  078%=      5-min Rain = 0
KLO1 041052Z 00012KT 13/09 A3004 RMK A01 T01300093  RH  078%=      5-min Rain = 0
KLO1 041053Z 00014KT 13/09 A3004 RMK A01 T01300092  RH  078%=      5-min Rain = 0
KLO1 041054Z 36011KT 13/09 A3004 RMK A01 T01310093  RH  078%=      5-min Rain = 0
KLO1 041055Z 35009G14KT 13/09 A3004 RMK A01 T01310094  RH  078%=      5-min Rain = 0
KLO1 041056Z 35013KT 13/09 A3004 RMK A01 T01310093  RH  078%=      5-min Rain = 0
KLO1 041057Z 36013KT 13/09 A3004 RMK A01 T01310092  RH  077%=      5-min Rain = 0
KLO1 041058Z 35013KT 13/09 A3004 RMK A01 T01310092  RH  077%=      5-min Rain = 0
KLO1 041059Z 35011KT 13/09 A3004 RMK A01 T01300092  RH  078%=      5-min Rain = 0
KLO1 041100Z 35011KT 13/09 A3004 RMK A01 T01310093  RH  078%=      5-min Rain = 0
KLO1 041101Z 35009KT 13/09 A3004 RMK A01 T01300093  RH  078%=      5-min Rain = 0
KLO1 041102Z 35010KT 13/09 A3004 RMK A01 T01300093  RH  078%=      5-min Rain = 0
KLO1 041103Z 35012KT 13/09 A3004 RMK A01 T01310092  RH  078%=      5-min Rain = 0
KLO1 041104Z 36010G15KT 13/09 A3004 RMK A01 T01300092  RH  078%=      5-min Rain = 0
KLO1 041105Z 00011KT 13/09 A3004 RMK A01 T01310093  RH  078%=      5-min Rain = 0
KLO1 041106Z 00012KT 13/09 A3004 RMK A01 T01300092  RH  078%=      5-min Rain = 0
KLO1 041107Z 00012KT 13/09 A3004 RMK A01 T01300093  RH  078%=      5-min Rain = 0
KLO1 041108Z 00018KT 13/09 A3004 RMK A01 T01300091  RH  077%=      5-min Rain = 0
KLO1 041109Z 01016KT 13/09 A3004 RMK A01 T01290090  RH  077%=      5-min Rain = 0
KLO1 041110Z 01015KT 13/09 A3004 RMK A01 T01290090  RH  077%=      5-min Rain = 0
KLO1 041111Z 00015KT 13/09 A3004 RMK A01 T01290089  RH  077%=      5-min Rain = 0
KLO1 041112Z 00015KT 13/09 A3004 RMK A01 T01290089  RH  076%=      5-min Rain = 0
KLO1 041113Z 36014KT 13/09 A3004 RMK A01 T01290089  RH  076%=      5-min Rain = 0
KLO1 041114Z 36015KT 13/09 A3004 RMK A01 T01290089  RH  077%=      5-min Rain = 0
KLO1 041115Z 00012KT 13/09 A3004 RMK A01 T01280088  RH  077%=      5-min Rain = 0
KLO1 041116Z 36012KT 13/09 A3004 RMK A01 T01280089  RH  077%=      5-min Rain = 0
KLO1 041117Z 00012KT 13/09 A3004 RMK A01 T01280089  RH  077%=      5-min Rain = 0
KLO1 041118Z 36013KT 13/09 A3004 RMK A01 T01280089  RH  077%=      5-min Rain = 0
KLO1 041119Z 00014KT 13/09 A3004 RMK A01 T01280088  RH  077%=      5-min Rain = 0
KLO1 041120Z 00016KT 13/09 A3004 RMK A01 T01280087  RH  076%=      5-min Rain = 0
KLO1 041121Z 00016KT 13/09 A3004 RMK A01 T01270087  RH  077%=      5-min Rain = 0
KLO1 041122Z 00014KT 13/09 A3004 RMK A01 T01270087  RH  077%=      5-min Rain = 0
KLO1 041123Z 00012KT 13/09 A3004 RMK A01 T01270087  RH  077%=      5-min Rain = 0
KLO1 041124Z 35011KT 13/09 A3004 RMK A01 T01270088  RH  077%=      5-min Rain = 0
KLO1 041125Z 36013G19KT 13/09 A3004 RMK A01 T01270088  RH  077%=      5-min Rain = 0
KLO1 041126Z 00016KT 13/09 A3004 RMK A01 T01270087  RH  077%=      5-min Rain = 0
KLO1 041127Z 00014KT 13/09 A3004 RMK A01 T01270087  RH  077%=      5-min Rain = 0
KLO1 041128Z 00014KT 13/09 A3004 RMK A01 T01270087  RH  077%=      5-min Rain = 0
KLO1 041129Z 36012KT 13/09 A3004 RMK A01 T01260087  RH  077%=      5-min Rain = 0
KLO1 041130Z 36013KT 13/09 A3004 RMK A01 T01260087  RH  077%=      5-min Rain = 0
KLO1 041131Z 36016G21KT 13/09 A3004 RMK A01 T01260087  RH  077%=      5-min Rain = 0
KLO1 041132Z 00014KT 13/09 A3004 RMK A01 T01260087  RH  077%=      5-min Rain = 0
KLO1 041133Z 00015KT 13/09 A3004 RMK A01 T01260087  RH  077%=      5-min Rain = 0
KLO1 041134Z 36013KT 13/09 A3004 RMK A01 T01260087  RH  077%=      5-min Rain = 0
KLO1 041135Z 36015KT 13/09 A3005 RMK A01 T01250087  RH  077%=      5-min Rain = 0
KLO1 041136Z 00015KT 13/09 A3005 RMK A01 T01260087  RH  077%=      5-min Rain = 0
KLO1 041137Z 01015KT 13/09 A3005 RMK A01 T01250087  RH  078%=      5-min Rain = 0
KLO1 041138Z 01014KT 13/09 A3005 RMK A01 T01250087  RH  078%=      5-min Rain = 0
KLO1 041139Z 00015KT 13/09 A3005 RMK A01 T01250087  RH  078%=      5-min Rain = 0
KLO1 041140Z 00013KT 13/09 A3005 RMK A01 T01250088  RH  078%=      5-min Rain = 0
KLO1 041141Z 36013KT 13/09 A3005 RMK A01 T01250088  RH  078%=      5-min Rain = 0
KLO1 041142Z 35011KT 13/09 A3005 RMK A01 T01250087  RH  078%=      5-min Rain = 0
KLO1 041143Z 36011G17KT 13/09 A3005 RMK A01 T01250087  RH  078%=      5-min Rain = 0
KLO1 041144Z 00013KT 13/09 A3005 RMK A01 T01250087  RH  078%=      5-min Rain = 0
KLO1 041145Z 36012KT 13/09 A3005 RMK A01 T01250087  RH  078%=      5-min Rain = 0
KLO1 041146Z 36012KT 13/09 A3005 RMK A01 T01250087  RH  078%=      5-min Rain = 0
KLO1 041147Z 36015G20KT 13/09 A3005 RMK A01 T01250087  RH  078%=      5-min Rain = 0
KLO1 041148Z 00013KT 13/09 A3005 RMK A01 T01250087  RH  078%=      5-min Rain = 0
KLO1 041149Z 36012G17KT 13/09 A3005 RMK A01 T01250087  RH  078%=      5-min Rain = 0
KLO1 041150Z 36012KT 13/09 A3005 RMK A01 T01250087  RH  078%=      5-min Rain = 0
KLO1 041151Z 35014KT 12/09 A3005 RMK A01 T01240087  RH  078%=      5-min Rain = 0
KLO1 041152Z 35017KT 13/09 A3005 RMK A01 T01250087  RH  078%=      5-min Rain = 0
KLO1 041153Z 36015G22KT 13/09 A3005 RMK A01 T01250086  RH  077%=      5-min Rain = 0
KLO1 041154Z 00015KT 13/09 A3005 RMK A01 T01250086  RH  077%=      5-min Rain = 0
KLO1 041155Z 36016KT 13/09 A3005 RMK A01 T01250087  RH  077%=      5-min Rain = 0
KLO1 041156Z 00015KT 13/09 A3005 RMK A01 T01250086  RH  077%=      5-min Rain = 0
KLO1 041157Z 00013KT 12/09 A3005 RMK A01 T01240086  RH  077%=      5-min Rain = 0
KLO1 041158Z 36011KT 13/09 A3005 RMK A01 T01250087  RH  078%=      5-min Rain = 0
KLO1 041159Z 00012KT 13/09 A3005 RMK A01 T01250087  RH  078%=      5-min Rain = 0
KLO1 041200Z 00013G18KT 12/09 A3005 RMK A01 T01240087  RH  078%=      5-min Rain = 0
KLO1 041201Z 00014KT 12/09 A3005 RMK A01 T01240086  RH  077%=      5-min Rain = 0
KLO1 041202Z 35011KT 12/09 A3005 RMK A01 T01240086  RH  078%=      5-min Rain = 0
KLO1 041203Z 00012G18KT 12/09 A3005 RMK A01 T01240086  RH  078%=      5-min Rain = 0
KLO1 041204Z 00015KT 12/09 A3005 RMK A01 T01240086  RH  077%=      5-min Rain = 0
KLO1 041205Z 01014KT 12/09 A3005 RMK A01 T01240085  RH  077%=      5-min Rain = 0
KLO1 041206Z 00011KT 12/09 A3005 RMK A01 T01240085  RH  077%=      5-min Rain = 0
KLO1 041207Z 00011KT 12/09 A3006 RMK A01 T01240086  RH  077%=      5-min Rain = 0
KLO1 041208Z 00013KT 12/09 A3006 RMK A01 T01240086  RH  077%=      5-min Rain = 0
KLO1 041209Z 00012KT 12/09 A3006 RMK A01 T01240085  RH  077%=      5-min Rain = 0
KLO1 041210Z 00014KT 12/09 A3006 RMK A01 T01240085  RH  077%=      5-min Rain = 0
KLO1 041211Z 00013KT 12/08 A3006 RMK A01 T01240084  RH  077%=      5-min Rain = 0
KLO1 041212Z 35012KT 12/08 A3006 RMK A01 T01240084  RH  076%=      5-min Rain = 0
KLO1 041213Z 36014KT 12/08 A3006 RMK A01 T01240084  RH  076%=      5-min Rain = 0
KLO1 041214Z 36013G18KT 13/08 A3006 RMK A01 T01250084  RH  076%=      5-min Rain = 0
KLO1 041215Z 36012KT 13/08 A3006 RMK A01 T01250084  RH  076%=      5-min Rain = 0
KLO1 041216Z 36013KT 12/08 A3006 RMK A01 T01240084  RH  076%=      5-min Rain = 0
KLO1 041217Z 35011KT 13/08 A3006 RMK A01 T01250084  RH  076%=      5-min Rain = 0
KLO1 041218Z 36009KT 13/09 A3006 RMK A01 T01250085  RH  076%=      5-min Rain = 0
KLO1 041219Z 36014KT 13/09 A3007 RMK A01 T01250085  RH  076%=      5-min Rain = 0
KLO1 041220Z 00015G20KT 13/08 A3007 RMK A01 T01250083  RH  075%=      5-min Rain = 0
KLO1 041221Z 35014KT 13/08 A3007 RMK A01 T01260084  RH  075%=      5-min Rain = 0
KLO1 041222Z 35011KT 13/08 A3007 RMK A01 T01260084  RH  076%=      5-min Rain = 0
KLO1 041223Z 35013KT 13/09 A3007 RMK A01 T01260085  RH  076%=      5-min Rain = 0
KLO1 041224Z 35013KT 13/08 A3007 RMK A01 T01260084  RH  076%=      5-min Rain = 0
KLO1 041225Z 35013G18KT 13/08 A3007 RMK A01 T01260084  RH  076%=      5-min Rain = 0
KLO1 041226Z 36016KT 13/08 A3007 RMK A01 T01270084  RH  075%=      5-min Rain = 0
KLO1 041227Z 35013KT 13/08 A3007 RMK A01 T01260084  RH  075%=      5-min Rain = 0
KLO1 041228Z 00014KT 13/08 A3007 RMK A01 T01260084  RH  075%=      5-min Rain = 0
KLO1 041229Z 35014KT 13/08 A3007 RMK A01 T01270084  RH  075%=      5-min Rain = 0
KLO1 041230Z 35014KT 13/08 A3007 RMK A01 T01260084  RH  075%=      5-min Rain = 0
KLO1 041231Z 35011KT 13/09 A3007 RMK A01 T01260085  RH  076%=      5-min Rain = 0
KLO1 041232Z 36013KT 13/09 A3008 RMK A01 T01270085  RH  076%=      5-min Rain = 0
KLO1 041233Z 35013KT 13/09 A3008 RMK A01 T01270085  RH  076%=      5-min Rain = 0
KLO1 041234Z 35011KT 13/09 A3008 RMK A01 T01270085  RH  076%=      5-min Rain = 0
KLO1 041235Z 35012KT 13/09 A3008 RMK A01 T01270086  RH  076%=      5-min Rain = 0
KLO1 041236Z 35012KT 13/09 A3008 RMK A01 T01270086  RH  076%=      5-min Rain = 0
KLO1 041237Z 34016KT 13/09 A3008 RMK A01 T01270086  RH  076%=      5-min Rain = 0
KLO1 041238Z 35018KT 13/08 A3008 RMK A01 T01270084  RH  075%=      5-min Rain = 0
KLO1 041239Z 34018KT 13/08 A3008 RMK A01 T01270083  RH  075%=      5-min Rain = 0
KLO1 041240Z 35016KT 13/08 A3008 RMK A01 T01270083  RH  074%=      5-min Rain = 0
KLO1 041241Z 34015G20KT 13/08 A3008 RMK A01 T01270083  RH  074%=      5-min Rain = 0
KLO1 041242Z 35015KT 13/08 A3008 RMK A01 T01280083  RH  074%=      5-min Rain = 0
KLO1 041243Z 35015KT 13/08 A3008 RMK A01 T01280083  RH  074%=      5-min Rain = 0
KLO1 041244Z 34014KT 13/08 A3008 RMK A01 T01280083  RH  074%=      5-min Rain = 0
KLO1 041245Z 34019KT 13/08 A3008 RMK A01 T01280081  RH  073%=      5-min Rain = 0
KLO1 041246Z 35020G26KT 13/08 A3008 RMK A01 T01280080  RH  072%=      5-min Rain = 0
KLO1 041247Z 35016KT 13/08 A3008 RMK A01 T01280080  RH  072%=      5-min Rain = 0
KLO1 041248Z 35015KT 13/08 A3008 RMK A01 T01280080  RH  072%=      5-min Rain = 0
KLO1 041249Z 35013KT 13/08 A3009 RMK A01 T01280080  RH  073%=      5-min Rain = 0
KLO1 041250Z 35015KT 13/08 A3009 RMK A01 T01280080  RH  072%=      5-min Rain = 0
KLO1 041251Z 36016G22KT 13/08 A3009 RMK A01 T01280080  RH  072%=      5-min Rain = 0
KLO1 041252Z 00015KT 13/08 A3009 RMK A01 T01280080  RH  072%=      5-min Rain = 0
KLO1 041253Z 35017KT 13/08 A3009 RMK A01 T01280080  RH  073%=      5-min Rain = 0
KLO1 041254Z 36014G21KT 13/08 A3009 RMK A01 T01280080  RH  072%=      5-min Rain = 0
KLO1 041255Z 35013KT 13/08 A3009 RMK A01 T01280080  RH  072%=      5-min Rain = 0
KLO1 041256Z 35012KT 13/08 A3009 RMK A01 T01280081  RH  073%=      5-min Rain = 0
KLO1 041257Z 35011KT 13/08 A3009 RMK A01 T01280081  RH  073%=      5-min Rain = 0
KLO1 041258Z 35013KT 13/08 A3009 RMK A01 T01280081  RH  073%=      5-min Rain = 0
KLO1 041259Z 36013KT 13/08 A3009 RMK A01 T01280081  RH  073%=      5-min Rain = 0
KLO1 041300Z 35013KT 13/08 A3009 RMK A01 T01280081  RH  073%=      5-min Rain = 0
KLO1 041301Z 35010G15KT 13/08 A3009 RMK A01 T01280082  RH  073%=      5-min Rain = 0
KLO1 041302Z 35014KT 13/08 A3009 RMK A01 T01280081  RH  073%=      5-min Rain = 0
KLO1 041303Z 35013KT 13/08 A3009 RMK A01 T01280081  RH  073%=      5-min Rain = 0
KLO1 041304Z 35014KT 13/08 A3009 RMK A01 T01280082  RH  073%=      5-min Rain = 0
KLO1 041305Z 35014KT 13/08 A3009 RMK A01 T01280081  RH  073%=      5-min Rain = 0
KLO1 041306Z 34016KT 13/08 A3009 RMK A01 T01300082  RH  073%=      5-min Rain = 0
KLO1 041307Z 35015G21KT 13/08 A3009 RMK A01 T01310081  RH  072%=      5-min Rain = 0
KLO1 041308Z 34018KT 13/08 A3009 RMK A01 T01310081  RH  071%=      5-min Rain = 0
KLO1 041309Z 34019KT 13/08 A3009 RMK A01 T01320080  RH  071%=      5-min Rain = 0
KLO1 041310Z 34017KT 13/08 A3009 RMK A01 T01320080  RH  071%=      5-min Rain = 0
KLO1 041311Z 35014KT 13/08 A3009 RMK A01 T01330080  RH  071%=      5-min Rain = 0
KLO1 041312Z 35015KT 13/08 A3009 RMK A01 T01340080  RH  070%=      5-min Rain = 0
KLO1 041313Z 35016KT 13/08 A3009 RMK A01 T01340080  RH  070%=      5-min Rain = 0
KLO1 041314Z 35012KT 14/08 A3009 RMK A01 T01350081  RH  070%=      5-min Rain = 0
KLO1 041315Z 35015KT 14/08 A3009 RMK A01 T01360081  RH  069%=      5-min Rain = 0
KLO1 041316Z 35012KT 14/08 A3009 RMK A01 T01360082  RH  070%=      5-min Rain = 0
KLO1 041317Z 35012KT 14/08 A301 RMK A01 T01360082  RH  070%=      5-min Rain = 0
KLO1 041318Z 35011KT 14/08 A301 RMK A01 T01370083  RH  070%=      5-min Rain = 0
KLO1 041319Z 35015KT 14/08 A301 RMK A01 T01370082  RH  069%=      5-min Rain = 0
KLO1 041320Z 36013KT 14/08 A301 RMK A01 T01370081  RH  069%=      5-min Rain = 0
KLO1 041321Z 36012KT 14/08 A301 RMK A01 T01360081  RH  070%=      5-min Rain = 0
KLO1 041322Z 34014KT 14/08 A301 RMK A01 T01360082  RH  070%=      5-min Rain = 0
KLO1 041323Z 35014KT 14/08 A301 RMK A01 T01360082  RH  070%=      5-min Rain = 0
KLO1 041324Z 35014KT 14/08 A301 RMK A01 T01370082  RH  069%=      5-min Rain = 0
KLO1 041325Z 34013KT 14/08 A301 RMK A01 T01370082  RH  069%=      5-min Rain = 0
KLO1 041326Z 34014KT 14/08 A301 RMK A01 T01370082  RH  069%=      5-min Rain = 0
KLO1 041327Z 34014KT 14/08 A301 RMK A01 T01370081  RH  069%=      5-min Rain = 0
KLO1 041328Z 34013KT 14/08 A301 RMK A01 T01370080  RH  068%=      5-min Rain = 0
KLO1 041329Z 35012KT 14/08 A301 RMK A01 T01360079  RH  069%=      5-min Rain = 0
KLO1 041330Z 35013KT 14/08 A301 RMK A01 T01360080  RH  069%=      5-min Rain = 0
KLO1 041331Z 36016KT 14/08 A3011 RMK A01 T01360079  RH  068%=      5-min Rain = 0
KLO1 041332Z 35012KT 14/08 A3011 RMK A01 T01350077  RH  068%=      5-min Rain = 0
KLO1 041333Z 36011KT 14/08 A3011 RMK A01 T01350079  RH  069%=      5-min Rain = 0
KLO1 041334Z 34015G20KT 14/08 A3011 RMK A01 T01350077  RH  068%=      5-min Rain = 0
KLO1 041335Z 35013KT 14/08 A3011 RMK A01 T01350078  RH  068%=      5-min Rain = 0
KLO1 041336Z 35014KT 14/08 A3011 RMK A01 T01350078  RH  068%=      5-min Rain = 0
KLO1 041337Z 34014KT 13/08 A3011 RMK A01 T01340078  RH  068%=      5-min Rain = 0
KLO1 041338Z 35013KT 13/08 A3011 RMK A01 T01340078  RH  069%=      5-min Rain = 0
KLO1 041339Z 35014KT 13/08 A3011 RMK A01 T01340079  RH  069%=      5-min Rain = 0
KLO1 041340Z 35012KT 13/08 A3011 RMK A01 T01340079  RH  069%=      5-min Rain = 0
KLO1 041341Z 35010KT 14/08 A3011 RMK A01 T01350079  RH  069%=      5-min Rain = 0
KLO1 041342Z 36011KT 14/08 A3011 RMK A01 T01360080  RH  069%=      5-min Rain = 0
KLO1 041343Z 34016KT 14/08 A3011 RMK A01 T01360079  RH  068%=      5-min Rain = 0
KLO1 041344Z 35014KT 14/08 A3011 RMK A01 T01360079  RH  068%=      5-min Rain = 0
KLO1 041345Z 35014KT 14/08 A3011 RMK A01 T01360079  RH  068%=      5-min Rain = 0
KLO1 041346Z 35013KT 14/08 A3012 RMK A01 T01360079  RH  068%=      5-min Rain = 0
KLO1 041347Z 34017KT 14/08 A3012 RMK A01 T01360078  RH  068%=      5-min Rain = 0
KLO1 041348Z 35015KT 14/08 A3012 RMK A01 T01350078  RH  068%=      5-min Rain = 0
KLO1 041349Z 00014G19KT 14/08 A3012 RMK A01 T01350078  RH  068%=      5-min Rain = 0
KLO1 041350Z 00015G20KT 14/08 A3012 RMK A01 T01350076  RH  067%=      5-min Rain = 0
KLO1 041351Z 00016KT 14/08 A3012 RMK A01 T01350076  RH  067%=      5-min Rain = 0
KLO1 041352Z 01016G22KT 14/08 A3012 RMK A01 T01350076  RH  067%=      5-min Rain = 0
KLO1 041353Z 01016KT 14/08 A3012 RMK A01 T01350076  RH  067%=      5-min Rain = 0
KLO1 041354Z 00015KT 14/08 A3012 RMK A01 T01350076  RH  068%=      5-min Rain = 0
KLO1 041355Z 01016KT 14/08 A3012 RMK A01 T01350076  RH  067%=      5-min Rain = 0
KLO1 041356Z 01017KT 14/08 A3012 RMK A01 T01350076  RH  068%=      5-min Rain = 0
KLO1 041357Z 01018KT 14/08 A3012 RMK A01 T01350076  RH  067%=      5-min Rain = 0
KLO1 041358Z 00014KT 14/08 A3012 RMK A01 T01350077  RH  068%=      5-min Rain = 0
KLO1 041359Z 00017KT 14/08 A3012 RMK A01 T01350076  RH  068%=      5-min Rain = 0
KLO1 041400Z 00014G19KT 14/08 A3012 RMK A01 T01350076  RH  067%=      5-min Rain = 0
KLO1 041401Z 35012KT 14/08 A3012 RMK A01 T01350077  RH  068%=      5-min Rain = 0
KLO1 041402Z 34013KT 14/08 A3012 RMK A01 T01360078  RH  068%=      5-min Rain = 0
KLO1 041403Z 35012KT 14/08 A3012 RMK A01 T01370078  RH  068%=      5-min Rain = 0
KLO1 041404Z 36012KT 14/08 A3012 RMK A01 T01370078  RH  068%=      5-min Rain = 0
KLO1 041405Z 36011KT 14/08 A3012 RMK A01 T01370078  RH  067%=      5-min Rain = 0
KLO1 041406Z 36010KT 14/08 A3012 RMK A01 T01370079  RH  068%=      5-min Rain = 0
KLO1 041407Z 00012KT 14/08 A3012 RMK A01 T01380080  RH  068%=      5-min Rain = 0
KLO1 041408Z 01014KT 14/08 A3013 RMK A01 T01370079  RH  068%=      5-min Rain = 0
KLO1 041409Z 00014KT 14/08 A3013 RMK A01 T01370078  RH  068%=      5-min Rain = 0
KLO1 041410Z 00014KT 14/08 A3013 RMK A01 T01350077  RH  068%=      5-min Rain = 0
KLO1 041411Z 00013KT 13/08 A3013 RMK A01 T01340078  RH  068%=      5-min Rain = 0
KLO1 041412Z 00010KT 13/08 A3013 RMK A01 T01340078  RH  069%=      5-min Rain = 0
KLO1 041413Z 00012KT 14/08 A3013 RMK A01 T01350079  RH  069%=      5-min Rain = 0
KLO1 041414Z 00013KT 14/08 A3013 RMK A01 T01350079  RH  069%=      5-min Rain = 0
KLO1 041415Z 00013KT 14/08 A3013 RMK A01 T01350079  RH  069%=      5-min Rain = 0
KLO1 041416Z 00012KT 13/08 A3013 RMK A01 T01340078  RH  069%=      5-min Rain = 0
KLO1 041417Z 34014KT 13/08 A3013 RMK A01 T01340078  RH  069%=      5-min Rain = 0
KLO1 041418Z 35014KT 13/08 A3013 RMK A01 T01340077  RH  068%=      5-min Rain = 0
KLO1 041419Z 35011KT 13/08 A3013 RMK A01 T01340077  RH  068%=      5-min Rain = 0
KLO1 041420Z 35012KT 13/08 A3013 RMK A01 T01340077  RH  068%=      5-min Rain = 0
KLO1 041421Z 34013KT 13/08 A3013 RMK A01 T01340077  RH  068%=      5-min Rain = 0
KLO1 041422Z 34012KT 14/08 A3013 RMK A01 T01350077  RH  068%=      5-min Rain = 0
KLO1 041423Z 35010G15KT 14/08 A3013 RMK A01 T01350078  RH  068%=      5-min Rain = 0
KLO1 041424Z 36009KT 14/08 A3013 RMK A01 T01350078  RH  068%=      5-min Rain = 0
KLO1 041425Z 36010KT 14/08 A3013 RMK A01 T01360079  RH  068%=      5-min Rain = 0
KLO1 041426Z 35011KT 14/08 A3013 RMK A01 T01360080  RH  069%=      5-min Rain = 0
KLO1 041427Z 35010KT 14/08 A3014 RMK A01 T01370079  RH  068%=      5-min Rain = 0
KLO1 041428Z 35012KT 14/08 A3014 RMK A01 T01370078  RH  068%=      5-min Rain = 0
KLO1 041429Z 36010KT 14/08 A3014 RMK A01 T01370079  RH  068%=      5-min Rain = 0
KLO1 041430Z 35012KT 14/08 A3014 RMK A01 T01370079  RH  068%=      5-min Rain = 0
KLO1 041431Z 36014KT 14/08 A3014 RMK A01 T01370078  RH  068%=      5-min Rain = 0
KLO1 041432Z 35013G18KT 14/08 A3014 RMK A01 T01370078  RH  067%=      5-min Rain = 0
KLO1 041433Z 36011KT 14/08 A3014 RMK A01 T01360078  RH  068%=      5-min Rain = 0
KLO1 041434Z 35011G18KT 14/08 A3014 RMK A01 T01360077  RH  068%=      5-min Rain = 0
KLO1 041435Z 35011KT 14/08 A3014 RMK A01 T01360078  RH  068%=      5-min Rain = 0
KLO1 041436Z 34013KT 14/08 A3014 RMK A01 T01370078  RH  068%=      5-min Rain = 0
KLO1 041437Z 35014KT 14/08 A3014 RMK A01 T01370078  RH  068%=      5-min Rain = 0
KLO1 041438Z 35012KT 14/08 A3014 RMK A01 T01370077  RH  067%=      5-min Rain = 0
KLO1 041439Z 35013KT 14/08 A3014 RMK A01 T01360077  RH  067%=      5-min Rain = 0
KLO1 041440Z 35013KT 14/08 A3014 RMK A01 T01360076  RH  067%=      5-min Rain = 0
KLO1 041441Z 35015KT 14/08 A3014 RMK A01 T01370076  RH  067%=      5-min Rain = 0
KLO1 041442Z 35014KT 14/08 A3014 RMK A01 T01360076  RH  067%=      5-min Rain = 0
KLO1 041443Z 34014KT 14/08 A3014 RMK A01 T01360076  RH  067%=      5-min Rain = 0
KLO1 041444Z 34016KT 14/08 A3014 RMK A01 T01360075  RH  067%=      5-min Rain = 0
KLO1 041445Z 34013KT 14/08 A3014 RMK A01 T01360075  RH  067%=      5-min Rain = 0
KLO1 041446Z 34013KT 14/08 A3014 RMK A01 T01360076  RH  067%=      5-min Rain = 0
KLO1 041447Z 34015KT 14/08 A3014 RMK A01 T01360076  RH  067%=      5-min Rain = 0
KLO1 041448Z 34014KT 14/08 A3014 RMK A01 T01360078  RH  068%=      5-min Rain = 0
KLO1 041449Z 35015KT 14/08 A3014 RMK A01 T01370079  RH  068%=      5-min Rain = 0
KLO1 041450Z 35012KT 14/08 A3014 RMK A01 T01370078  RH  068%=      5-min Rain = 0
KLO1 041451Z 34013KT 14/08 A3014 RMK A01 T01370078  RH  068%=      5-min Rain = 0
KLO1 041452Z 35015KT 14/08 A3014 RMK A01 T01370077  RH  067%=      5-min Rain = 0
KLO1 041453Z 35013KT 14/08 A3014 RMK A01 T01370077  RH  067%=      5-min Rain = 0
KLO1 041454Z 35013KT 14/08 A3014 RMK A01 T01360078  RH  068%=      5-min Rain = 0
KLO1 041455Z 35013KT 14/08 A3014 RMK A01 T01360076  RH  067%=      5-min Rain = 0
KLO1 041456Z 35011KT 14/08 A3014 RMK A01 T01350077  RH  068%=      5-min Rain = 0
KLO1 041457Z 34013KT 14/08 A3014 RMK A01 T01360077  RH  068%=      5-min Rain = 0
KLO1 041458Z 35012KT 14/08 A3014 RMK A01 T01370076  RH  067%=      5-min Rain = 0
KLO1 041459Z 36011KT 14/08 A3014 RMK A01 T01370077  RH  067%=      5-min Rain = 0
KLO1 041500Z 00010KT 14/08 A3014 RMK A01 T01370077  RH  067%=      5-min Rain = 0
KLO1 041501Z 00014KT 14/08 A3014 RMK A01 T01370077  RH  067%=      5-min Rain = 0
KLO1 041502Z 00013KT 14/08 A3014 RMK A01 T01370076  RH  067%=      5-min Rain = 0
KLO1 041503Z 36012KT 14/08 A3014 RMK A01 T01370077  RH  067%=      5-min Rain = 0
KLO1 041504Z 35011KT 14/08 A3014 RMK A01 T01370076  RH  067%=      5-min Rain = 0
KLO1 041505Z 34015KT 14/08 A3014 RMK A01 T01370076  RH  067%=      5-min Rain = 0
KLO1 041506Z 34015KT 14/08 A3014 RMK A01 T01380076  RH  066%=      5-min Rain = 0
KLO1 041507Z 34016KT 14/08 A3014 RMK A01 T01380076  RH  066%=      5-min Rain = 0
KLO1 041508Z 34014KT 14/08 A3014 RMK A01 T01380076  RH  066%=      5-min Rain = 0
KLO1 041509Z 34016KT 14/08 A3014 RMK A01 T01370077  RH  067%=      5-min Rain = 0
KLO1 041510Z 35015KT 14/08 A3014 RMK A01 T01370076  RH  066%=      5-min Rain = 0
KLO1 041511Z 35013KT 14/08 A3014 RMK A01 T01370076  RH  066%=      5-min Rain = 0
KLO1 041512Z 35015KT 14/08 A3015 RMK A01 T01370076  RH  066%=      5-min Rain = 0
KLO1 041513Z 34015KT 14/08 A3014 RMK A01 T01370075  RH  066%=      5-min Rain = 0
KLO1 041514Z 00013KT 14/08 A3015 RMK A01 T01380075  RH  066%=      5-min Rain = 0
KLO1 041515Z 00013KT 14/08 A3015 RMK A01 T01390076  RH  066%=      5-min Rain = 0
KLO1 041516Z 35013KT 14/07 A3015 RMK A01 T01400074  RH  064%=      5-min Rain = 0
KLO1 041517Z 35012KT 14/07 A3015 RMK A01 T01400073  RH  064%=      5-min Rain = 0
KLO1 041518Z 00015KT 14/07 A3015 RMK A01 T01390073  RH  064%=      5-min Rain = 0
KLO1 041519Z 00012KT 14/07 A3015 RMK A01 T01390072  RH  064%=      5-min Rain = 0
KLO1 041520Z 01013KT 14/07 A3015 RMK A01 T01380073  RH  065%=      5-min Rain = 0
KLO1 041521Z 02014KT 14/08 A3015 RMK A01 T01380075  RH  066%=      5-min Rain = 0
KLO1 041522Z 00012KT 14/08 A3015 RMK A01 T01390075  RH  065%=      5-min Rain = 0
KLO1 041523Z 00012KT 14/07 A3015 RMK A01 T01390074  RH  065%=      5-min Rain = 0
KLO1 041524Z 01013KT 14/07 A3015 RMK A01 T01390074  RH  065%=      5-min Rain = 0
KLO1 041525Z 00014KT 14/07 A3015 RMK A01 T01390073  RH  064%=      5-min Rain = 0
KLO1 041526Z 01016KT 14/07 A3015 RMK A01 T01390073  RH  064%=      5-min Rain = 0
KLO1 041527Z 00014KT 14/07 A3015 RMK A01 T01390073  RH  064%=      5-min Rain = 0
KLO1 041528Z 00014KT 14/07 A3015 RMK A01 T01390071  RH  064%=      5-min Rain = 0
KLO1 041529Z 00014KT 14/07 A3015 RMK A01 T01380072  RH  064%=      5-min Rain = 0
KLO1 041530Z 00014KT 14/07 A3015 RMK A01 T01380072  RH  064%=      5-min Rain = 0
KLO1 041531Z 01012KT 14/07 A3015 RMK A01 T01380072  RH  064%=      5-min Rain = 0
KLO1 041532Z 00010KT 14/08 A3015 RMK A01 T01390075  RH  065%=      5-min Rain = 0
KLO1 041533Z 00013G18KT 14/08 A3015 RMK A01 T01410075  RH  064%=      5-min Rain = 0
KLO1 041534Z 00015KT 14/07 A3015 RMK A01 T01410073  RH  064%=      5-min Rain = 0
KLO1 041535Z 00014KT 14/07 A3015 RMK A01 T01390071  RH  064%=      5-min Rain = 0
KLO1 041536Z 00013KT 14/07 A3015 RMK A01 T01380072  RH  064%=      5-min Rain = 0
KLO1 041537Z 00012KT 14/07 A3015 RMK A01 T01380073  RH  064%=      5-min Rain = 0
KLO1 041538Z 00013KT 14/07 A3015 RMK A01 T01390072  RH  064%=      5-min Rain = 0
KLO1 041539Z 01015KT 14/07 A3015 RMK A01 T01390073  RH  064%=      5-min Rain = 0
KLO1 041540Z 01014KT 14/07 A3015 RMK A01 T01390073  RH  064%=      5-min Rain = 0
KLO1 041541Z 01012KT 14/07 A3015 RMK A01 T01400073  RH  064%=      5-min Rain = 0
KLO1 041542Z 00013KT 14/07 A3015 RMK A01 T01400073  RH  064%=      5-min Rain = 0
KLO1 041543Z 01012KT 14/07 A3016 RMK A01 T01400073  RH  064%=      5-min Rain = 0
KLO1 041544Z 01012KT 14/07 A3016 RMK A01 T01400073  RH  064%=      5-min Rain = 0
KLO1 041545Z 01012KT 14/08 A3016 RMK A01 T01400075  RH  065%=      5-min Rain = 0
KLO1 041546Z 01015KT 14/08 A3016 RMK A01 T01410075  RH  064%=      5-min Rain = 0
KLO1 041547Z 00013KT 14/07 A3016 RMK A01 T01410073  RH  063%=      5-min Rain = 0
KLO1 041548Z 36011G16KT 14/07 A3016 RMK A01 T01400073  RH  064%=      5-min Rain = 0
KLO1 041549Z 36014KT 14/07 A3016 RMK A01 T01400072  RH  064%=      5-min Rain = 0
KLO1 041550Z 35012KT 14/07 A3016 RMK A01 T01400072  RH  064%=      5-min Rain = 0
KLO1 041551Z 35011KT 14/07 A3016 RMK A01 T01400073  RH  064%=      5-min Rain = 0
KLO1 041552Z 00012KT 14/07 A3016 RMK A01 T01410073  RH  064%=      5-min Rain = 0
KLO1 041553Z 00012KT 14/07 A3016 RMK A01 T01410073  RH  064%=      5-min Rain = 0
KLO1 041554Z 36011KT 14/07 A3016 RMK A01 T01410073  RH  063%=      5-min Rain = 0
KLO1 041555Z 36009KT 14/07 A3016 RMK A01 T01410074  RH  064%=      5-min Rain = 0
KLO1 041556Z 01012KT 14/08 A3016 RMK A01 T01420075  RH  064%=      5-min Rain = 0
KLO1 041557Z 02012KT 14/08 A3016 RMK A01 T01420076  RH  064%=      5-min Rain = 0
KLO1 041558Z 01009KT 14/08 A3016 RMK A01 T01430075  RH  064%=      5-min Rain = 0
KLO1 041559Z 01010KT 14/08 A3016 RMK A01 T01430078  RH  065%=      5-min Rain = 0
KLO1 041600Z 02013KT 14/08 A3016 RMK A01 T01440076  RH  064%=      5-min Rain = 0
KLO1 041601Z 02011KT 14/08 A3016 RMK A01 T01440077  RH  064%=      5-min Rain = 0
KLO1 041602Z 01011KT 14/08 A3016 RMK A01 T01440076  RH  064%=      5-min Rain = 0
KLO1 041603Z 01011KT 14/08 A3016 RMK A01 T01440076  RH  064%=      5-min Rain = 0
KLO1 041604Z 01011KT 14/08 A3016 RMK A01 T01440076  RH  063%=      5-min Rain = 0
KLO1 041605Z 01013KT 14/08 A3016 RMK A01 T01440076  RH  064%=      5-min Rain = 0
KLO1 041606Z 01011KT 14/08 A3016 RMK A01 T01440075  RH  063%=      5-min Rain = 0
KLO1 041607Z 01010KT 14/08 A3016 RMK A01 T01440077  RH  064%=      5-min Rain = 0
KLO1 041608Z 01008KT 15/08 A3016 RMK A01 T01450077  RH  063%=      5-min Rain = 0
KLO1 041609Z 01009KT 15/08 A3016 RMK A01 T01450077  RH  064%=      5-min Rain = 0
KLO1 041610Z 36010KT 15/08 A3016 RMK A01 T01460076  RH  063%=      5-min Rain = 0
KLO1 041611Z 34009KT 15/08 A3016 RMK A01 T01460077  RH  063%=      5-min Rain = 0
KLO1 041612Z 36011KT 15/08 A3016 RMK A01 T01460077  RH  063%=      5-min Rain = 0
KLO1 041613Z 01009G14KT 15/08 A3016 RMK A01 T01460076  RH  063%=      5-min Rain = 0
KLO1 041614Z 34015KT 15/08 A3015 RMK A01 T01460077  RH  063%=      5-min Rain = 0
KLO1 041615Z 34014KT 15/08 A3015 RMK A01 T01460078  RH  064%=      5-min Rain = 0
KLO1 041616Z 35011KT 15/08 A3015 RMK A01 T01460076  RH  063%=      5-min Rain = 0
KLO1 041617Z 34011KT 15/08 A3015 RMK A01 T01450076  RH  063%=      5-min Rain = 0
KLO1 041618Z 33011KT 15/08 A3015 RMK A01 T01450076  RH  064%=      5-min Rain = 0
KLO1 041619Z 34012KT 15/08 A3015 RMK A01 T01450077  RH  064%=      5-min Rain = 0
KLO1 041620Z 35012KT 15/08 A3016 RMK A01 T01460078  RH  063%=      5-min Rain = 0
KLO1 041621Z 34012KT 15/08 A3016 RMK A01 T01470077  RH  063%=      5-min Rain = 0
KLO1 041622Z 34013KT 15/08 A3016 RMK A01 T01470077  RH  063%=      5-min Rain = 0
KLO1 041623Z 36012KT 15/08 A3016 RMK A01 T01480076  RH  062%=      5-min Rain = 0
KLO1 041624Z 35011KT 15/08 A3016 RMK A01 T01470076  RH  062%=      5-min Rain = 0
KLO1 041625Z 34012KT 15/08 A3016 RMK A01 T01470076  RH  062%=      5-min Rain = 0
KLO1 041626Z 35012KT 15/08 A3016 RMK A01 T01480076  RH  062%=      5-min Rain = 0
KLO1 041627Z 34012KT 15/08 A3016 RMK A01 T01470075  RH  062%=      5-min Rain = 0
KLO1 041628Z 35010G16KT 15/08 A3016 RMK A01 T01470077  RH  063%=      5-min Rain = 0
KLO1 041629Z 34013KT 15/08 A3016 RMK A01 T01490076  RH  062%=      5-min Rain = 0
KLO1 041630Z 35015KT 15/08 A3016 RMK A01 T01480077  RH  062%=      5-min Rain = 0
KLO1 041631Z 35013KT 15/08 A3016 RMK A01 T01480075  RH  061%=      5-min Rain = 0
KLO1 041632Z 35013KT 15/08 A3016 RMK A01 T01480075  RH  061%=      5-min Rain = 0
KLO1 041633Z 35011KT 15/08 A3016 RMK A01 T01490075  RH  061%=      5-min Rain = 0
KLO1 041634Z 34009KT 15/08 A3015 RMK A01 T01490077  RH  062%=      5-min Rain = 0
KLO1 041635Z 35011KT 15/08 A3016 RMK A01 T01500077  RH  062%=      5-min Rain = 0
KLO1 041636Z 35009KT 15/08 A3016 RMK A01 T01500076  RH  061%=      5-min Rain = 0
KLO1 041637Z 36010KT 15/08 A3016 RMK A01 T01500077  RH  061%=      5-min Rain = 0
KLO1 041638Z 00012KT 15/08 A3016 RMK A01 T01520077  RH  061%=      5-min Rain = 0
KLO1 041639Z 35010KT 15/08 A3016 RMK A01 T01530076  RH  060%=      5-min Rain = 0
KLO1 041640Z 36008KT 15/08 A3016 RMK A01 T01530077  RH  060%=      5-min Rain = 0
KLO1 041641Z 01008KT 15/08 A3016 RMK A01 T01540079  RH  061%=      5-min Rain = 0
KLO1 041642Z 00008KT 16/08 A3016 RMK A01 T01570082  RH  061%=      5-min Rain = 0
KLO1 041643Z 00012KT 16/08 A3016 RMK A01 T01590078  RH  059%=      5-min Rain = 0
KLO1 041644Z 35011KT 16/08 A3016 RMK A01 T01570075  RH  058%=      5-min Rain = 0
KLO1 041645Z 34012KT 16/08 A3016 RMK A01 T01560076  RH  059%=      5-min Rain = 0
KLO1 041646Z 35012KT 15/07 A3016 RMK A01 T01540074  RH  059%=      5-min Rain = 0
KLO1 041647Z 36013KT 15/07 A3016 RMK A01 T01530074  RH  059%=      5-min Rain = 0
KLO1 041648Z 33014KT 15/08 A3016 RMK A01 T01530075  RH  060%=      5-min Rain = 0
KLO1 041649Z 34010KT 15/08 A3016 RMK A01 T01530076  RH  060%=      5-min Rain = 0
KLO1 041650Z 33013KT 15/08 A3016 RMK A01 T01540079  RH  061%=      5-min Rain = 0
KLO1 041651Z 34013KT 16/08 A3016 RMK A01 T01560078  RH  060%=      5-min Rain = 0
KLO1 041652Z 34011KT 16/08 A3016 RMK A01 T01550075  RH  059%=      5-min Rain = 0
KLO1 041653Z 33010KT 15/08 A3016 RMK A01 T01540078  RH  060%=      5-min Rain = 0
KLO1 041654Z 32010KT 16/08 A3016 RMK A01 T01550078  RH  060%=      5-min Rain = 0
KLO1 041655Z 33012G17KT 16/08 A3016 RMK A01 T01560078  RH  060%=      5-min Rain = 0
KLO1 041656Z 35013KT 16/08 A3016 RMK A01 T01570079  RH  060%=      5-min Rain = 0
KLO1 041657Z 34013KT 16/08 A3016 RMK A01 T01580076  RH  058%=      5-min Rain = 0
KLO1 041658Z 36012KT 16/08 A3016 RMK A01 T01560075  RH  059%=      5-min Rain = 0
KLO1 041659Z 34010KT 16/08 A3015 RMK A01 T01550077  RH  059%=      5-min Rain = 0
KLO1 041700Z 34012KT 16/08 A3015 RMK A01 T01560078  RH  060%=      5-min Rain = 0
KLO1 041701Z 34012KT 16/08 A3015 RMK A01 T01570075  RH  058%=      5-min Rain = 0
KLO1 041702Z 34010KT 16/08 A3015 RMK A01 T01550077  RH  060%=      5-min Rain = 0
KLO1 041703Z 35010KT 16/08 A3015 RMK A01 T01550078  RH  060%=      5-min Rain = 0
KLO1 041704Z 36010KT 16/08 A3015 RMK A01 T01590079  RH  059%=      5-min Rain = 0
KLO1 041705Z 35011KT 16/08 A3015 RMK A01 T01590077  RH  058%=      5-min Rain = 0
KLO1 041706Z 35013KT 16/08 A3015 RMK A01 T01570076  RH  058%=      5-min Rain = 0
KLO1 041707Z 35013KT 16/08 A3015 RMK A01 T01570077  RH  059%=      5-min Rain = 0
KLO1 041708Z 35013KT 16/08 A3015 RMK A01 T01570076  RH  059%=      5-min Rain = 0
KLO1 041709Z 35010KT 16/08 A3015 RMK A01 T01570076  RH  058%=      5-min Rain = 0
KLO1 041710Z 34010KT 16/08 A3015 RMK A01 T01580077  RH  059%=      5-min Rain = 0
KLO1 041711Z 34013KT 16/08 A3015 RMK A01 T01600080  RH  059%=      5-min Rain = 0
KLO1 041712Z 35009KT 16/08 A3015 RMK A01 T01610078  RH  058%=      5-min Rain = 0
KLO1 041713Z 00011KT 16/08 A3015 RMK A01 T01630078  RH  057%=      5-min Rain = 0
KLO1 041714Z 35010KT 16/08 A3015 RMK A01 T01630077  RH  057%=      5-min Rain = 0
KLO1 041715Z 35008KT 16/08 A3015 RMK A01 T01620079  RH  058%=      5-min Rain = 0
KLO1 041716Z 34013KT 16/08 A3015 RMK A01 T01640081  RH  058%=      5-min Rain = 0
KLO1 041717Z 34014KT 17/08 A3015 RMK A01 T01650078  RH  056%=      5-min Rain = 0
KLO1 041718Z 34012KT 17/08 A3015 RMK A01 T01650079  RH  057%=      5-min Rain = 0
KLO1 041719Z 34012KT 16/08 A3015 RMK A01 T01640077  RH  057%=      5-min Rain = 0
KLO1 041720Z 34010KT 16/08 A3015 RMK A01 T01630078  RH  057%=      5-min Rain = 0
KLO1 041721Z 34009G15KT 17/08 A3015 RMK A01 T01650081  RH  057%=      5-min Rain = 0
KLO1 041722Z 33013KT 17/08 A3015 RMK A01 T01680080  RH  056%=      5-min Rain = 0
KLO1 041723Z 33013KT 17/08 A3015 RMK A01 T01670078  RH  056%=      5-min Rain = 0
KLO1 041724Z 33014G19KT 17/08 A3015 RMK A01 T01650078  RH  056%=      5-min Rain = 0
KLO1 041725Z 34015KT 17/08 A3015 RMK A01 T01650077  RH  056%=      5-min Rain = 0
KLO1 041726Z 34016KT 16/08 A3015 RMK A01 T01640075  RH  056%=      5-min Rain = 0
KLO1 041727Z 35013KT 16/07 A3015 RMK A01 T01620074  RH  056%=      5-min Rain = 0
KLO1 041728Z 35012KT 16/08 A3015 RMK A01 T01630076  RH  057%=      5-min Rain = 0
KLO1 041729Z 34012KT 17/08 A3015 RMK A01 T01660077  RH  056%=      5-min Rain = 0
KLO1 041730Z 34013KT 17/08 A3015 RMK A01 T01650076  RH  055%=      5-min Rain = 0
KLO1 041731Z 35015KT 17/08 A3015 RMK A01 T01660079  RH  056%=      5-min Rain = 0
KLO1 041732Z 34014KT 17/08 A3015 RMK A01 T01680076  RH  055%=      5-min Rain = 0
KLO1 041733Z 33013KT 17/08 A3015 RMK A01 T01660078  RH  056%=      5-min Rain = 0
KLO1 041734Z 34013KT 17/08 A3015 RMK A01 T01660078  RH  056%=      5-min Rain = 0
KLO1 041735Z 34012KT 17/08 A3015 RMK A01 T01660078  RH  056%=      5-min Rain = 0
KLO1 041736Z 34010KT 17/08 A3015 RMK A01 T01690082  RH  057%=      5-min Rain = 0
KLO1 041737Z 35010KT 17/08 A3015 RMK A01 T01710080  RH  055%=      5-min Rain = 0
KLO1 041738Z 32012KT 17/08 A3015 RMK A01 T01710080  RH  055%=      5-min Rain = 0
KLO1 041739Z 33015KT 17/08 A3015 RMK A01 T01690079  RH  055%=      5-min Rain = 0
KLO1 041740Z 32013KT 17/08 A3015 RMK A01 T01690079  RH  055%=      5-min Rain = 0
KLO1 041741Z 32015KT 17/08 A3014 RMK A01 T01680077  RH  055%=      5-min Rain = 0
KLO1 041742Z 34016KT 17/08 A3014 RMK A01 T01650078  RH  056%=      5-min Rain = 0
KLO1 041743Z 35014KT 17/08 A3015 RMK A01 T01670078  RH  056%=      5-min Rain = 0
KLO1 041744Z 35012KT 17/08 A3015 RMK A01 T01690077  RH  055%=      5-min Rain = 0
KLO1 041745Z 35010KT 17/08 A3015 RMK A01 T01680075  RH  054%=      5-min Rain = 0
KLO1 041746Z 36008KT 17/08 A3015 RMK A01 T01670076  RH  055%=      5-min Rain = 0
KLO1 041747Z 34013KT 17/08 A3015 RMK A01 T01650076  RH  056%=      5-min Rain = 0
KLO1 041748Z 33012KT 17/08 A3015 RMK A01 T01670078  RH  056%=      5-min Rain = 0
KLO1 041749Z 33010KT 17/08 A3014 RMK A01 T01670079  RH  056%=      5-min Rain = 0
KLO1 041750Z 35013KT 17/08 A3014 RMK A01 T01670078  RH  056%=      5-min Rain = 0
KLO1 041751Z 33012KT 17/08 A3014 RMK A01 T01670077  RH  055%=      5-min Rain = 0
KLO1 041752Z 33008KT 17/07 A3014 RMK A01 T01650074  RH  055%=      5-min Rain = 0
KLO1 041753Z 33008G15KT 16/08 A3014 RMK A01 T01640082  RH  058%=      5-min Rain = 0
KLO1 041754Z 33011KT 17/08 A3014 RMK A01 T01670079  RH  056%=      5-min Rain = 0
KLO1 041755Z 32012KT 17/08 A3014 RMK A01 T01690080  RH  056%=      5-min Rain = 0
KLO1 041756Z 32014KT 17/08 A3014 RMK A01 T01700079  RH  055%=      5-min Rain = 0
KLO1 041757Z 33015KT 17/08 A3014 RMK A01 T01700078  RH  055%=      5-min Rain = 0
KLO1 041758Z 35014KT 17/08 A3014 RMK A01 T01690076  RH  054%=      5-min Rain = 0
KLO1 041759Z 34013KT 17/08 A3014 RMK A01 T01690077  RH  055%=      5-min Rain = 0
KLO1 041800Z 34012KT 17/08 A3014 RMK A01 T01690078  RH  055%=      5-min Rain = 0
KLO1 041801Z 33014KT 17/08 A3014 RMK A01 T01710080  RH  055%=      5-min Rain = 0
KLO1 041802Z 33015KT 17/08 A3014 RMK A01 T01720079  RH  055%=      5-min Rain = 0
KLO1 041803Z 33014KT 17/08 A3014 RMK A01 T01700078  RH  054%=      5-min Rain = 0
KLO1 041804Z 33010KT 17/08 A3014 RMK A01 T01680077  RH  055%=      5-min Rain = 0
KLO1 041805Z 33012KT 17/08 A3014 RMK A01 T01700083  RH  057%=      5-min Rain = 0
KLO1 041806Z 33010KT 17/08 A3014 RMK A01 T01730080  RH  055%=      5-min Rain = 0
KLO1 041807Z 33011KT 17/08 A3014 RMK A01 T01730081  RH  055%=      5-min Rain = 0
KLO1 041808Z 33012KT 17/08 A3014 RMK A01 T01730080  RH  054%=      5-min Rain = 0
KLO1 041809Z 33011KT 17/08 A3014 RMK A01 T01720081  RH  055%=      5-min Rain = 0
KLO1 041810Z 32011KT 17/08 A3013 RMK A01 T01740083  RH  055%=      5-min Rain = 0
KLO1 041811Z 34014KT 18/08 A3013 RMK A01 T01750080  RH  054%=      5-min Rain = 0
KLO1 041812Z 36012KT 17/08 A3013 RMK A01 T01730075  RH  053%=      5-min Rain = 0
KLO1 041813Z 35015KT 17/08 A3013 RMK A01 T01700077  RH  054%=      5-min Rain = 0
KLO1 041814Z 33015KT 17/08 A3013 RMK A01 T01710079  RH  054%=      5-min Rain = 0
KLO1 041815Z 32012KT 17/08 A3013 RMK A01 T01710080  RH  055%=      5-min Rain = 0
KLO1 041816Z 33011KT 17/08 A3013 RMK A01 T01710080  RH  055%=      5-min Rain = 0
KLO1 041817Z 35013KT 17/08 A3013 RMK A01 T01710078  RH  054%=      5-min Rain = 0
KLO1 041818Z 35013KT 17/08 A3013 RMK A01 T01710077  RH  054%=      5-min Rain = 0
KLO1 041819Z 36011KT 17/08 A3013 RMK A01 T01720078  RH  054%=      5-min Rain = 0
KLO1 041820Z 36012KT 17/08 A3013 RMK A01 T01740077  RH  053%=      5-min Rain = 0
KLO1 041821Z 00009G15KT 18/08 A3013 RMK A01 T01750080  RH  054%=      5-min Rain = 0
KLO1 041822Z 35010KT 18/08 A3013 RMK A01 T01770080  RH  053%=      5-min Rain = 0
KLO1 041823Z 01014KT 18/08 A3013 RMK A01 T01780079  RH  052%=      5-min Rain = 0
KLO1 041824Z 00014KT 18/08 A3013 RMK A01 T01780077  RH  052%=      5-min Rain = 0
KLO1 041825Z 36014KT 18/08 A3013 RMK A01 T01770076  RH  051%=      5-min Rain = 0
KLO1 041826Z 01012KT 18/08 A3013 RMK A01 T01750075  RH  052%=      5-min Rain = 0
KLO1 041827Z 00014KT 17/08 A3012 RMK A01 T01740078  RH  053%=      5-min Rain = 0
KLO1 041828Z 34016KT 18/08 A3012 RMK A01 T01760075  RH  052%=      5-min Rain = 0
KLO1 041829Z 34014KT 17/07 A3012 RMK A01 T01730074  RH  052%=      5-min Rain = 0
KLO1 041830Z 34014KT 17/08 A3012 RMK A01 T01720077  RH  053%=      5-min Rain = 0
KLO1 041831Z 35012KT 17/08 A3012 RMK A01 T01740077  RH  053%=      5-min Rain = 0
KLO1 041832Z 35009G14KT 17/07 A3012 RMK A01 T01740074  RH  052%=      5-min Rain = 0
KLO1 041833Z 35006KT 17/08 A3012 RMK A01 T01730075  RH  052%=      5-min Rain = 0
KLO1 041834Z 36009KT 17/08 A3012 RMK A01 T01720075  RH  053%=      5-min Rain = 0
KLO1 041835Z 01010G15KT 17/07 A3012 RMK A01 T01720074  RH  053%=      5-min Rain = 0
KLO1 041836Z 35013KT 17/08 A3012 RMK A01 T01740077  RH  053%=      5-min Rain = 0
KLO1 041837Z 36013KT 18/08 A3012 RMK A01 T01760078  RH  052%=      5-min Rain = 0
KLO1 041838Z 34013KT 18/08 A3012 RMK A01 T01800078  RH  051%=      5-min Rain = 0
KLO1 041839Z 34012KT 18/08 A3012 RMK A01 T01800077  RH  051%=      5-min Rain = 0
KLO1 041840Z 34009KT 18/09 A3012 RMK A01 T01810085  RH  053%=      5-min Rain = 0
KLO1 041841Z 33010KT 19/09 A3012 RMK A01 T01860086  RH  052%=      5-min Rain = 0
KLO1 041842Z 35010G15KT 19/08 A3012 RMK A01 T01870081  RH  050%=      5-min Rain = 0
KLO1 041843Z 01014KT 19/08 A3012 RMK A01 T01850078  RH  049%=      5-min Rain = 0
KLO1 041844Z 01014KT 18/08 A3012 RMK A01 T01830077  RH  050%=      5-min Rain = 0
KLO1 041845Z 01015G21KT 18/08 A3012 RMK A01 T01820078  RH  050%=      5-min Rain = 0
KLO1 041846Z 36014KT 18/08 A3012 RMK A01 T01820077  RH  050%=      5-min Rain = 0
KLO1 041847Z 35013KT 18/07 A3012 RMK A01 T01800074  RH  050%=      5-min Rain = 0
KLO1 041848Z 36010KT 18/08 A3012 RMK A01 T01760075  RH  051%=      5-min Rain = 0
KLO1 041849Z 34012KT 18/08 A3011 RMK A01 T01770077  RH  052%=      5-min Rain = 0
KLO1 041850Z 34015KT 18/08 A3011 RMK A01 T01790077  RH  051%=      5-min Rain = 0
KLO1 041851Z 34014KT 18/08 A3011 RMK A01 T01810078  RH  051%=      5-min Rain = 0
KLO1 041852Z 34014KT 18/08 A3011 RMK A01 T01810078  RH  051%=      5-min Rain = 0
KLO1 041853Z 35014KT 18/08 A3011 RMK A01 T01820077  RH  050%=      5-min Rain = 0
KLO1 041854Z 34009KT 18/08 A3011 RMK A01 T01810076  RH  050%=      5-min Rain = 0
KLO1 041855Z 34008KT 18/08 A3011 RMK A01 T01820080  RH  051%=      5-min Rain = 0
KLO1 041856Z 34011G17KT 18/08 A3011 RMK A01 T01840081  RH  051%=      5-min Rain = 0
KLO1 041857Z 35013KT 19/08 A3011 RMK A01 T01850077  RH  050%=      5-min Rain = 0
KLO1 041858Z 35012KT 18/08 A3011 RMK A01 T01840079  RH  050%=      5-min Rain = 0
KLO1 041859Z 33013KT 19/08 A3011 RMK A01 T01860078  RH  049%=      5-min Rain = 0
KLO1 041900Z 34012KT 19/08 A3011 RMK A01 T01850077  RH  049%=      5-min Rain = 0
KLO1 041901Z 36012KT 18/07 A3011 RMK A01 T01840074  RH  049%=      5-min Rain = 0
KLO1 041902Z 35012KT 18/08 A3011 RMK A01 T01830075  RH  049%=      5-min Rain = 0
KLO1 041903Z 35011G16KT 18/07 A3011 RMK A01 T01820074  RH  049%=      5-min Rain = 0
KLO1 041904Z 01011G16KT 18/07 A3011 RMK A01 T01810074  RH  050%=      5-min Rain = 0
KLO1 041905Z 02012KT 18/08 A3011 RMK A01 T01820076  RH  050%=      5-min Rain = 0
KLO1 041906Z 02011KT 18/08 A3011 RMK A01 T01830076  RH  050%=      5-min Rain = 0
KLO1 041907Z 01010KT 18/08 A3011 RMK A01 T01840079  RH  050%=      5-min Rain = 0
KLO1 041908Z 36009KT 19/08 A3011 RMK A01 T01860079  RH  050%=      5-min Rain = 0
KLO1 041909Z 34013G18KT 19/08 A301 RMK A01 T01870078  RH  049%=      5-min Rain = 0
KLO1 041910Z 34013G19KT 19/08 A301 RMK A01 T01870079  RH  049%=      5-min Rain = 0
KLO1 041911Z 34013KT 19/08 A301 RMK A01 T01860076  RH  049%=      5-min Rain = 0
KLO1 041912Z 33012KT 19/08 A301 RMK A01 T01860076  RH  049%=      5-min Rain = 0
KLO1 041913Z 34012KT 19/08 A301 RMK A01 T01850078  RH  050%=      5-min Rain = 0
KLO1 041914Z 01010KT 19/08 A301 RMK A01 T01880081  RH  050%=      5-min Rain = 0
KLO1 041915Z 00010KT 19/08 A301 RMK A01 T01900078  RH  048%=      5-min Rain = 0
KLO1 041916Z 00008KT 19/08 A301 RMK A01 T01920077  RH  047%=      5-min Rain = 0
KLO1 041917Z 35008G14KT 19/08 A301 RMK A01 T01920077  RH  047%=      5-min Rain = 0
KLO1 041918Z 34012KT 19/08 A301 RMK A01 T01920076  RH  047%=      5-min Rain = 0
KLO1 041919Z 34011KT 19/08 A301 RMK A01 T01920075  RH  047%=      5-min Rain = 0
KLO1 041920Z 00010KT 19/08 A301 RMK A01 T01920076  RH  047%=      5-min Rain = 0
KLO1 041921Z 36010G15KT 19/08 A301 RMK A01 T01920077  RH  047%=      5-min Rain = 0
KLO1 041922Z 01011KT 19/07 A301 RMK A01 T01930074  RH  046%=      5-min Rain = 0
KLO1 041923Z 01010KT 19/07 A301 RMK A01 T01910073  RH  046%=      5-min Rain = 0
KLO1 041924Z 01010KT 19/07 A301 RMK A01 T01900074  RH  047%=      5-min Rain = 0
KLO1 041925Z 00008KT 19/07 A301 RMK A01 T01900074  RH  047%=      5-min Rain = 0
KLO1 041926Z 35008KT 19/08 A301 RMK A01 T01890075  RH  047%=      5-min Rain = 0
KLO1 041927Z 35008KT 19/08 A301 RMK A01 T01890077  RH  048%=      5-min Rain = 0
KLO1 041928Z 34012KT 19/08 A301 RMK A01 T01910081  RH  049%=      5-min Rain = 0
KLO1 041929Z 34010KT 19/08 A301 RMK A01 T01940075  RH  046%=      5-min Rain = 0
KLO1 041930Z 34010KT 19/07 A301 RMK A01 T01920074  RH  046%=      5-min Rain = 0
KLO1 041931Z 35009KT 19/08 A301 RMK A01 T01900075  RH  047%=      5-min Rain = 0
KLO1 041932Z 34007KT 19/07 A301 RMK A01 T01900074  RH  047%=      5-min Rain = 0
KLO1 041933Z 33011KT 19/08 A301 RMK A01 T01910075  RH  047%=      5-min Rain = 0
KLO1 041934Z 34013KT 19/08 A301 RMK A01 T01940080  RH  048%=      5-min Rain = 0
KLO1 041935Z 35013KT 20/07 A301 RMK A01 T01950074  RH  045%=      5-min Rain = 0
KLO1 041936Z 36011KT 20/08 A301 RMK A01 T01950076  RH  046%=      5-min Rain = 0
KLO1 041937Z 34011KT 20/08 A301 RMK A01 T01960076  RH  046%=      5-min Rain = 0
KLO1 041938Z 33009KT 20/07 A301 RMK A01 T01950073  RH  045%=      5-min Rain = 0
KLO1 041939Z 33007KT 19/07 A301 RMK A01 T01920072  RH  046%=      5-min Rain = 0
KLO1 041940Z 33007KT 19/08 A301 RMK A01 T01900076  RH  047%=      5-min Rain = 0
KLO1 041941Z 35007KT 19/08 A301 RMK A01 T01910076  RH  047%=      5-min Rain = 0
KLO1 041942Z 00009KT 19/08 A301 RMK A01 T01920075  RH  047%=      5-min Rain = 0
KLO1 041943Z 00008KT 19/07 A301 RMK A01 T01920074  RH  046%=      5-min Rain = 0
KLO1 041944Z 01008KT 19/08 A301 RMK A01 T01920077  RH  047%=      5-min Rain = 0
KLO1 041945Z 02010KT 19/08 A301 RMK A01 T01930077  RH  047%=      5-min Rain = 0
KLO1 041946Z 02013KT 20/08 A301 RMK A01 T01950078  RH  047%=      5-min Rain = 0
KLO1 041947Z 01009KT 20/08 A301 RMK A01 T01960078  RH  046%=      5-min Rain = 0
KLO1 041948Z 03008KT 20/08 A301 RMK A01 T01970077  RH  046%=      5-min Rain = 0
KLO1 041949Z 02011KT 20/08 A301 RMK A01 T01960076  RH  046%=      5-min Rain = 0
KLO1 041950Z 01010KT 19/08 A301 RMK A01 T01940076  RH  046%=      5-min Rain = 0
KLO1 041951Z 02009KT 19/08 A301 RMK A01 T01940076  RH  047%=      5-min Rain = 0
KLO1 041952Z 03007KT 19/08 A301 RMK A01 T01940075  RH  046%=      5-min Rain = 0
KLO1 041953Z 01009KT 20/08 A301 RMK A01 T01950080  RH  047%=      5-min Rain = 0
KLO1 041954Z 01011KT 20/08 A301 RMK A01 T01980078  RH  046%=      5-min Rain = 0
KLO1 041955Z 35012KT 20/07 A301 RMK A01 T01990074  RH  044%=      5-min Rain = 0
KLO1 041956Z 35008KT 20/07 A301 RMK A01 T01970070  RH  044%=      5-min Rain = 0
KLO1 041957Z 00008KT 20/07 A301 RMK A01 T01950073  RH  045%=      5-min Rain = 0
KLO1 041958Z 02013KT 20/08 A301 RMK A01 T01950075  RH  046%=      5-min Rain = 0
KLO1 041959Z 00010KT 20/07 A301 RMK A01 T01970073  RH  045%=      5-min Rain = 0
KLO1 042000Z 01007KT 20/07 A301 RMK A01 T01960074  RH  045%=      5-min Rain = 0
KLO1 042001Z 02008KT 20/07 A301 RMK A01 T01960074  RH  045%=      5-min Rain = 0
KLO1 042002Z 02010KT 20/08 A301 RMK A01 T01960075  RH  046%=      5-min Rain = 0
KLO1 042003Z 01009KT 20/08 A301 RMK A01 T01960077  RH  046%=      5-min Rain = 0
KLO1 042004Z 35009KT 20/08 A301 RMK A01 T01970076  RH  045%=      5-min Rain = 0
KLO1 042005Z 00012KT 20/08 A301 RMK A01 T01980077  RH  046%=      5-min Rain = 0
KLO1 042006Z 01011KT 20/08 A301 RMK A01 T01990076  RH  045%=      5-min Rain = 0
KLO1 042007Z 00012KT 20/07 A301 RMK A01 T01990074  RH  044%=      5-min Rain = 0
KLO1 042008Z 02011KT 20/08 A301 RMK A01 T01980075  RH  045%=      5-min Rain = 0
KLO1 042009Z 00014KT 20/08 A3009 RMK A01 T01970075  RH  045%=      5-min Rain = 0
KLO1 042010Z 34011KT 20/08 A3009 RMK A01 T01970075  RH  045%=      5-min Rain = 0
KLO1 042011Z 35009KT 20/08 A3009 RMK A01 T01990076  RH  045%=      5-min Rain = 0
KLO1 042012Z 33010KT 20/08 A3009 RMK A01 T01980076  RH  045%=      5-min Rain = 0
KLO1 042013Z 32007KT 20/08 A3009 RMK A01 T01980075  RH  045%=      5-min Rain = 0
KLO1 042014Z 35006KT 20/07 A3009 RMK A01 T01970074  RH  045%=      5-min Rain = 0
KLO1 042015Z 35007KT 20/07 A3009 RMK A01 T01960074  RH  045%=      5-min Rain = 0
KLO1 042016Z 34012KT 20/08 A3009 RMK A01 T01970078  RH  046%=      5-min Rain = 0
KLO1 042017Z 34011KT 20/08 A3009 RMK A01 T01980077  RH  045%=      5-min Rain = 0
KLO1 042018Z 34013KT 20/08 A3009 RMK A01 T01990077  RH  045%=      5-min Rain = 0
KLO1 042019Z 36008KT 20/08 A3009 RMK A01 T02000075  RH  044%=      5-min Rain = 0
KLO1 042020Z 03007KT 20/08 A3009 RMK A01 T02010079  RH  045%=      5-min Rain = 0
KLO1 042021Z 02008KT 20/08 A3009 RMK A01 T02020080  RH  045%=      5-min Rain = 0
KLO1 042022Z 01009KT 20/08 A3009 RMK A01 T02020077  RH  044%=      5-min Rain = 0
KLO1 042023Z 02010KT 20/08 A3009 RMK A01 T02010077  RH  045%=      5-min Rain = 0
KLO1 042024Z 35011KT 20/08 A3009 RMK A01 T02020079  RH  045%=      5-min Rain = 0
KLO1 042025Z 34011KT 20/08 A3009 RMK A01 T02040079  RH  044%=      5-min Rain = 0
KLO1 042026Z 33010KT 20/08 A3009 RMK A01 T02040080  RH  045%=      5-min Rain = 0
KLO1 042027Z 33010KT 20/08 A3009 RMK A01 T02040080  RH  045%=      5-min Rain = 0
KLO1 042028Z 32010KT 20/08 A3009 RMK A01 T02030080  RH  045%=      5-min Rain = 0
KLO1 042029Z 32011KT 20/08 A3008 RMK A01 T02030080  RH  045%=      5-min Rain = 0
KLO1 042030Z 34011KT 20/08 A3008 RMK A01 T02040080  RH  045%=      5-min Rain = 0
KLO1 042031Z 35011KT 20/08 A3008 RMK A01 T02040080  RH  045%=      5-min Rain = 0
KLO1 042032Z 00009KT 20/08 A3008 RMK A01 T02040077  RH  044%=      5-min Rain = 0
KLO1 042033Z 35008KT 21/08 A3008 RMK A01 T02050079  RH  044%=      5-min Rain = 0
KLO1 042034Z 35012KT 21/08 A3009 RMK A01 T02060077  RH  043%=      5-min Rain = 0
KLO1 042035Z 00013KT 21/08 A3008 RMK A01 T02050076  RH  043%=      5-min Rain = 0
KLO1 042036Z 35012KT 20/08 A3008 RMK A01 T02040077  RH  044%=      5-min Rain = 0
KLO1 042037Z 35012KT 20/08 A3008 RMK A01 T02040077  RH  044%=      5-min Rain = 0
KLO1 042038Z 34012KT 21/08 A3008 RMK A01 T02050077  RH  043%=      5-min Rain = 0
KLO1 042039Z 33012KT 21/08 A3008 RMK A01 T02050076  RH  043%=      5-min Rain = 0
KLO1 042040Z 35009KT 20/07 A3009 RMK A01 T02020073  RH  043%=      5-min Rain = 0
KLO1 042041Z 35008KT 20/07 A3009 RMK A01 T02000074  RH  044%=      5-min Rain = 0
KLO1 042042Z 36007G13KT 20/08 A3008 RMK A01 T02000076  RH  045%=      5-min Rain = 0
KLO1 042043Z 01011KT 20/08 A3008 RMK A01 T02020077  RH  044%=      5-min Rain = 0
KLO1 042044Z 00009KT 20/08 A3008 RMK A01 T02030077  RH  044%=      5-min Rain = 0
KLO1 042045Z 01009KT 20/08 A3008 RMK A01 T02030075  RH  043%=      5-min Rain = 0
KLO1 042046Z 01008KT 20/08 A3008 RMK A01 T02030080  RH  045%=      5-min Rain = 0
KLO1 042047Z 01010KT 21/08 A3008 RMK A01 T02050079  RH  044%=      5-min Rain = 0
KLO1 042048Z 00012KT 21/08 A3008 RMK A01 T02050075  RH  043%=      5-min Rain = 0
KLO1 042049Z 01011KT 20/08 A3008 RMK A01 T02030075  RH  044%=      5-min Rain = 0
KLO1 042050Z 36011KT 20/08 A3008 RMK A01 T02020075  RH  044%=      5-min Rain = 0
KLO1 042051Z 36010KT 20/08 A3008 RMK A01 T02020075  RH  044%=      5-min Rain = 0
KLO1 042052Z 36009KT 20/08 A3008 RMK A01 T02020076  RH  044%=      5-min Rain = 0
KLO1 042053Z 00007KT 20/08 A3008 RMK A01 T02030078  RH  045%=      5-min Rain = 0
KLO1 042054Z 35009KT 20/08 A3008 RMK A01 T02040076  RH  043%=      5-min Rain = 0
KLO1 042055Z 34009KT 20/07 A3008 RMK A01 T02030074  RH  043%=      5-min Rain = 0
KLO1 042056Z 34007KT 20/08 A3008 RMK A01 T02020076  RH  044%=      5-min Rain = 0
KLO1 042057Z 01007G12KT 20/08 A3008 RMK A01 T02020077  RH  044%=      5-min Rain = 0
KLO1 042058Z 35012KT 20/08 A3008 RMK A01 T02020075  RH  044%=      5-min Rain = 0
KLO1 042059Z 35011KT 20/07 A3008 RMK A01 T02030074  RH  043%=      5-min Rain = 0
KLO1 042100Z 00014KT 20/07 A3008 RMK A01 T02030074  RH  043%=      5-min Rain = 0
KLO1 042101Z 01010KT 20/07 A3008 RMK A01 T02040073  RH  043%=      5-min Rain = 0
KLO1 042102Z 02007KT 20/08 A3008 RMK A01 T02040078  RH  044%=      5-min Rain = 0
KLO1 042103Z 02006KT 21/08 A3008 RMK A01 T02050076  RH  043%=      5-min Rain = 0
KLO1 042104Z 36006KT 21/07 A3008 RMK A01 T02050074  RH  043%=      5-min Rain = 0
KLO1 042105Z 33009KT 20/08 A3008 RMK A01 T02040076  RH  043%=      5-min Rain = 0
KLO1 042106Z 32007KT 21/07 A3008 RMK A01 T02050073  RH  042%=      5-min Rain = 0
KLO1 042107Z 35010KT 20/08 A3008 RMK A01 T02040075  RH  043%=      5-min Rain = 0
KLO1 042108Z 35010KT 21/07 A3008 RMK A01 T02050074  RH  043%=      5-min Rain = 0
KLO1 042109Z 01009KT 21/08 A3008 RMK A01 T02060079  RH  044%=      5-min Rain = 0
KLO1 042110Z 00009KT 21/08 A3008 RMK A01 T02080075  RH  042%=      5-min Rain = 0
KLO1 042111Z 01008KT 21/07 A3008 RMK A01 T02080074  RH  042%=      5-min Rain = 0
KLO1 042112Z 36008KT 21/08 A3008 RMK A01 T02070076  RH  043%=      5-min Rain = 0
KLO1 042113Z 35011KT 21/07 A3008 RMK A01 T02080074  RH  042%=      5-min Rain = 0
KLO1 042114Z 36008KT 21/07 A3008 RMK A01 T02070073  RH  042%=      5-min Rain = 0
KLO1 042115Z 01011KT 21/08 A3008 RMK A01 T02050076  RH  043%=      5-min Rain = 0
KLO1 042116Z 36009KT 21/08 A3008 RMK A01 T02060075  RH  043%=      5-min Rain = 0
KLO1 042117Z 00007KT 21/07 A3008 RMK A01 T02050072  RH  042%=      5-min Rain = 0
KLO1 042118Z 35005KT 20/07 A3008 RMK A01 T02030070  RH  042%=      5-min Rain = 0
KLO1 042119Z 35004KT 20/07 A3008 RMK A01 T02020073  RH  043%=      5-min Rain = 0
KLO1 042120Z 02004KT 20/08 A3008 RMK A01 T02030078  RH  044%=      5-min Rain = 0
KLO1 042121Z 02005KT 21/08 A3008 RMK A01 T02050076  RH  043%=      5-min Rain = 0
KLO1 042122Z 01010KT 21/08 A3008 RMK A01 T02060076  RH  043%=      5-min Rain = 0
KLO1 042123Z 01009KT 21/08 A3008 RMK A01 T02060075  RH  043%=      5-min Rain = 0
KLO1 042124Z 01007KT 21/08 A3008 RMK A01 T02060076  RH  043%=      5-min Rain = 0
KLO1 042125Z 02006KT 21/08 A3008 RMK A01 T02070075  RH  042%=      5-min Rain = 0
KLO1 042126Z 04006KT 21/08 A3008 RMK A01 T02060077  RH  043%=      5-min Rain = 0
KLO1 042127Z 01006KT 21/08 A3008 RMK A01 T02060078  RH  044%=      5-min Rain = 0
KLO1 042128Z 01010KT 21/08 A3008 RMK A01 T02080076  RH  042%=      5-min Rain = 0
KLO1 042129Z 35010KT 21/08 A3008 RMK A01 T02090075  RH  042%=      5-min Rain = 0
KLO1 042130Z 35007KT 21/07 A3008 RMK A01 T02090073  RH  041%=      5-min Rain = 0
KLO1 042131Z 35007KT 21/07 A3008 RMK A01 T02050073  RH  042%=      5-min Rain = 0
KLO1 042132Z 34007KT 21/08 A3008 RMK A01 T02050075  RH  043%=      5-min Rain = 0
KLO1 042133Z 33005KT 20/08 A3008 RMK A01 T02040076  RH  043%=      5-min Rain = 0
KLO1 042134Z 35008KT 20/08 A3008 RMK A01 T02040076  RH  043%=      5-min Rain = 0
KLO1 042135Z 35010KT 20/08 A3007 RMK A01 T02040076  RH  043%=      5-min Rain = 0
KLO1 042136Z 34009KT 21/08 A3007 RMK A01 T02060075  RH  043%=      5-min Rain = 0
KLO1 042137Z 00009KT 21/08 A3008 RMK A01 T02070080  RH  044%=      5-min Rain = 0
KLO1 042138Z 00010KT 21/08 A3007 RMK A01 T02090076  RH  042%=      5-min Rain = 0
KLO1 042139Z 35006KT 21/07 A3007 RMK A01 T02070074  RH  042%=      5-min Rain = 0
KLO1 042140Z 34006KT 21/07 A3007 RMK A01 T02060074  RH  042%=      5-min Rain = 0
KLO1 042141Z 35009KT 21/08 A3007 RMK A01 T02060079  RH  044%=      5-min Rain = 0
KLO1 042142Z 34010KT 21/08 A3007 RMK A01 T02080077  RH  043%=      5-min Rain = 0
KLO1 042143Z 34007KT 21/08 A3007 RMK A01 T02090075  RH  042%=      5-min Rain = 0
KLO1 042144Z 35007KT 21/08 A3007 RMK A01 T02070075  RH  042%=      5-min Rain = 0
KLO1 042145Z 01006KT 21/08 A3007 RMK A01 T02060076  RH  043%=      5-min Rain = 0
KLO1 042146Z 01010KT 21/08 A3007 RMK A01 T02080079  RH  043%=      5-min Rain = 0
KLO1 042147Z 01010KT 21/08 A3007 RMK A01 T02090078  RH  043%=      5-min Rain = 0
KLO1 042148Z 01008KT 21/08 A3007 RMK A01 T02090075  RH  042%=      5-min Rain = 0
KLO1 042149Z 04002KT 21/07 A3007 RMK A01 T02070074  RH  042%=      5-min Rain = 0
KLO1 042150Z 35008G14KT 21/08 A3007 RMK A01 T02070077  RH  043%=      5-min Rain = 0
KLO1 042151Z 34009KT 21/08 A3007 RMK A01 T02090080  RH  043%=      5-min Rain = 0
KLO1 042152Z 34011KT 21/08 A3007 RMK A01 T02100077  RH  042%=      5-min Rain = 0
KLO1 042153Z 02008KT 21/08 A3007 RMK A01 T02090075  RH  042%=      5-min Rain = 0
KLO1 042154Z 02010KT 21/07 A3007 RMK A01 T02080074  RH  042%=      5-min Rain = 0
KLO1 042155Z 04009KT 21/07 A3007 RMK A01 T02060073  RH  042%=      5-min Rain = 0
KLO1 042156Z 35008KT 21/08 A3007 RMK A01 T02050077  RH  044%=      5-min Rain = 0
KLO1 042157Z 33007KT 21/08 A3007 RMK A01 T02070078  RH  043%=      5-min Rain = 0
KLO1 042158Z 33007KT 21/08 A3007 RMK A01 T02080075  RH  042%=      5-min Rain = 0
KLO1 042159Z 34006KT 21/08 A3007 RMK A01 T02080077  RH  043%=      5-min Rain = 0
KLO1 042200Z 35004KT 21/07 A3007 RMK A01 T02070072  RH  042%=      5-min Rain = 0
KLO1 042201Z 34005KT 21/08 A3007 RMK A01 T02060076  RH  043%=      5-min Rain = 0
KLO1 042202Z 34005KT 21/08 A3007 RMK A01 T02070079  RH  044%=      5-min Rain = 0
KLO1 042203Z 35006G12KT 21/08 A3007 RMK A01 T02090077  RH  043%=      5-min Rain = 0
KLO1 042204Z 00009KT 21/08 A3007 RMK A01 T02100075  RH  042%=      5-min Rain = 0
KLO1 042205Z 35009KT 21/08 A3007 RMK A01 T02110079  RH  043%=      5-min Rain = 0
KLO1 042206Z 36008KT 21/08 A3007 RMK A01 T02130076  RH  041%=      5-min Rain = 0
KLO1 042207Z 01007KT 21/07 A3007 RMK A01 T02110072  RH  040%=      5-min Rain = 0
KLO1 042208Z 03010KT 21/08 A3007 RMK A01 T02100075  RH  042%=      5-min Rain = 0
KLO1 042209Z 03009KT 21/07 A3007 RMK A01 T02100074  RH  041%=      5-min Rain = 0
KLO1 042210Z 02009KT 21/07 A3007 RMK A01 T02090072  RH  041%=      5-min Rain = 0
KLO1 042211Z 03009KT 21/07 A3007 RMK A01 T02080073  RH  041%=      5-min Rain = 0
KLO1 042212Z 01008KT 21/08 A3007 RMK A01 T02090075  RH  042%=      5-min Rain = 0
KLO1 042213Z 01005KT 21/07 A3007 RMK A01 T02090072  RH  041%=      5-min Rain = 0
KLO1 042214Z 35005KT 21/07 A3007 RMK A01 T02090071  RH  041%=      5-min Rain = 0
KLO1 042215Z 35005KT 21/07 A3007 RMK A01 T02080072  RH  041%=      5-min Rain = 0
KLO1 042216Z 00004KT 21/07 A3007 RMK A01 T02080070  RH  041%=      5-min Rain = 0
KLO1 042217Z 00005KT 21/07 A3007 RMK A01 T02080071  RH  041%=      5-min Rain = 0
KLO1 042218Z 35004KT 21/07 A3007 RMK A01 T02070072  RH  041%=      5-min Rain = 0
KLO1 042219Z 05005KT 21/07 A3007 RMK A01 T02070073  RH  042%=      5-min Rain = 0
KLO1 042220Z 01004KT 21/07 A3007 RMK A01 T02080070  RH  041%=      5-min Rain = 0
KLO1 042221Z 03008KT 21/08 A3007 RMK A01 T02080075  RH  042%=      5-min Rain = 0
KLO1 042222Z 02004KT 21/07 A3006 RMK A01 T02080071  RH  041%=      5-min Rain = 0
KLO1 042223Z 01006KT 21/08 A3006 RMK A01 T02080078  RH  043%=      5-min Rain = 0
KLO1 042224Z 00006KT 21/08 A3006 RMK A01 T02090076  RH  042%=      5-min Rain = 0
KLO1 042225Z 01007KT 21/08 A3006 RMK A01 T02100075  RH  042%=      5-min Rain = 0
KLO1 042226Z 01007KT 21/08 A3006 RMK A01 T02100077  RH  042%=      5-min Rain = 0
KLO1 042227Z 03007KT 21/08 A3006 RMK A01 T02100075  RH  041%=      5-min Rain = 0
KLO1 042228Z 03008KT 21/07 A3006 RMK A01 T02090071  RH  041%=      5-min Rain = 0
KLO1 042229Z 02004KT 21/07 A3006 RMK A01 T02070069  RH  041%=      5-min Rain = 0
KLO1 042230Z 35007KT 21/07 A3006 RMK A01 T02050070  RH  042%=      5-min Rain = 0
KLO1 042231Z 33011KT 21/07 A3006 RMK A01 T02060072  RH  042%=      5-min Rain = 0
KLO1 042232Z 33011KT 21/07 A3006 RMK A01 T02070073  RH  042%=      5-min Rain = 0
KLO1 042233Z 33009KT 21/08 A3006 RMK A01 T02070075  RH  043%=      5-min Rain = 0
KLO1 042234Z 35008KT 21/07 A3006 RMK A01 T02070072  RH  041%=      5-min Rain = 0
KLO1 042235Z 32007KT 21/07 A3006 RMK A01 T02080073  RH  042%=      5-min Rain = 0
KLO1 042236Z 34006KT 21/07 A3006 RMK A01 T02080072  RH  041%=      5-min Rain = 0
KLO1 042237Z 34005KT 21/07 A3006 RMK A01 T02080071  RH  041%=      5-min Rain = 0
KLO1 042238Z 34007KT 21/07 A3006 RMK A01 T02080072  RH  041%=      5-min Rain = 0
KLO1 042239Z 35008KT 21/08 A3006 RMK A01 T02080075  RH  042%=      5-min Rain = 0
KLO1 042240Z 02008KT 21/08 A3006 RMK A01 T02080076  RH  042%=      5-min Rain = 0
KLO1 042241Z 01005KT 21/07 A3006 RMK A01 T02090073  RH  041%=      5-min Rain = 0
KLO1 042242Z 02003KT 21/07 A3006 RMK A01 T02080073  RH  042%=      5-min Rain = 0
KLO1 042243Z 02004KT 21/07 A3006 RMK A01 T02070072  RH  042%=      5-min Rain = 0
KLO1 042244Z 33003KT 21/07 A3006 RMK A01 T02070074  RH  042%=      5-min Rain = 0
KLO1 042245Z 05006KT 21/08 A3006 RMK A01 T02080077  RH  043%=      5-min Rain = 0
KLO1 042246Z 03003KT 21/07 A3006 RMK A01 T02090072  RH  041%=      5-min Rain = 0
KLO1 042247Z 02002KT 21/07 A3006 RMK A01 T02080073  RH  042%=      5-min Rain = 0
KLO1 042248Z 07001KT 21/08 A3006 RMK A01 T02080075  RH  042%=      5-min Rain = 0
KLO1 042249Z 02003KT 21/07 A3006 RMK A01 T02090074  RH  042%=      5-min Rain = 0
KLO1 042250Z 02004KT 21/08 A3006 RMK A01 T02100075  RH  042%=      5-min Rain = 0
KLO1 042251Z 35009KT 21/08 A3006 RMK A01 T02110077  RH  042%=      5-min Rain = 0
KLO1 042252Z 34009KT 21/08 A3006 RMK A01 T02120075  RH  041%=      5-min Rain = 0
KLO1 042253Z 33007KT 21/07 A3006 RMK A01 T02100073  RH  041%=      5-min Rain = 0
KLO1 042254Z 34010KT 21/08 A3006 RMK A01 T02090076  RH  042%=      5-min Rain = 0
KLO1 042255Z 35010KT 21/08 A3006 RMK A01 T02110075  RH  042%=      5-min Rain = 0
KLO1 042256Z 35010KT 21/07 A3006 RMK A01 T02110074  RH  041%=      5-min Rain = 0
KLO1 042257Z 36008KT 21/07 A3006 RMK A01 T02100073  RH  041%=      5-min Rain = 0
KLO1 042258Z 35008KT 21/08 A3006 RMK A01 T02090076  RH  042%=      5-min Rain = 0
KLO1 042259Z 35005KT 21/07 A3006 RMK A01 T02090073  RH  041%=      5-min Rain = 0
KLO1 042300Z 34004KT 21/07 A3006 RMK A01 T02080072  RH  041%=      5-min Rain = 0
KLO1 042301Z 33005KT 21/07 A3006 RMK A01 T02080072  RH  041%=      5-min Rain = 0
KLO1 042302Z 35006KT 21/08 A3006 RMK A01 T02070075  RH  042%=      5-min Rain = 0
KLO1 042303Z 35004KT 21/07 A3006 RMK A01 T02080069  RH  041%=      5-min Rain = 0
KLO1 042304Z 35006KT 21/07 A3006 RMK A01 T02060070  RH  041%=      5-min Rain = 0
KLO1 042305Z 36007KT 21/07 A3006 RMK A01 T02060070  RH  041%=      5-min Rain = 0
KLO1 042306Z 00006KT 21/07 A3006 RMK A01 T02060070  RH  041%=      5-min Rain = 0
KLO1 042307Z 00005KT 21/07 A3006 RMK A01 T02070072  RH  041%=      5-min Rain = 0
KLO1 042308Z 02009KT 21/07 A3006 RMK A01 T02070070  RH  041%=      5-min Rain = 0
KLO1 042309Z 01009KT 21/07 A3006 RMK A01 T02070073  RH  042%=      5-min Rain = 0
KLO1 042310Z 35005KT 21/07 A3006 RMK A01 T02080070  RH  041%=      5-min Rain = 0
KLO1 042311Z 02007KT 21/07 A3006 RMK A01 T02080070  RH  041%=      5-min Rain = 0
KLO1 042312Z 02004KT 21/07 A3006 RMK A01 T02080070  RH  041%=      5-min Rain = 0
KLO1 042313Z 05006KT 21/07 A3006 RMK A01 T02070071  RH  041%=      5-min Rain = 0
KLO1 042314Z 04005KT 21/07 A3006 RMK A01 T02070070  RH  041%=      5-min Rain = 0
KLO1 042315Z 01006KT 21/07 A3006 RMK A01 T02070070  RH  041%=      5-min Rain = 0
KLO1 042316Z 36006KT 21/07 A3006 RMK A01 T02070070  RH  041%=      5-min Rain = 0
KLO1 042317Z 36007KT 21/07 A3006 RMK A01 T02070073  RH  042%=      5-min Rain = 0
KLO1 042318Z 01010KT 21/07 A3006 RMK A01 T02080072  RH  041%=      5-min Rain = 0
KLO1 042319Z 35008KT 21/07 A3006 RMK A01 T02090073  RH  041%=      5-min Rain = 0
KLO1 042320Z 34007KT 21/07 A3006 RMK A01 T02090072  RH  041%=      5-min Rain = 0
KLO1 042321Z 34007KT 21/07 A3006 RMK A01 T02090073  RH  041%=      5-min Rain = 0
KLO1 042322Z 33009KT 21/07 A3006 RMK A01 T02090073  RH  041%=      5-min Rain = 0
KLO1 042323Z 34008KT 21/07 A3006 RMK A01 T02100071  RH  041%=      5-min Rain = 0
KLO1 042324Z 00006KT 21/07 A3006 RMK A01 T02100072  RH  041%=      5-min Rain = 0
KLO1 042325Z 34005KT 21/07 A3006 RMK A01 T02090073  RH  041%=      5-min Rain = 0
KLO1 042326Z 34003KT 21/07 A3006 RMK A01 T02100072  RH  041%=      5-min Rain = 0
KLO1 042327Z 01004KT 21/07 A3006 RMK A01 T02090074  RH  041%=      5-min Rain = 0
KLO1 042328Z 34005KT 21/07 A3006 RMK A01 T02100072  RH  041%=      5-min Rain = 0
KLO1 042329Z 34007KT 21/07 A3006 RMK A01 T02100072  RH  041%=      5-min Rain = 0
KLO1 042330Z 35008KT 21/07 A3006 RMK A01 T02100074  RH  041%=      5-min Rain = 0
KLO1 042331Z 00008KT 21/08 A3006 RMK A01 T02110075  RH  041%=      5-min Rain = 0
KLO1 042332Z 01010KT 21/08 A3006 RMK A01 T02110075  RH  041%=      5-min Rain = 0
KLO1 042333Z 01006KT 21/07 A3006 RMK A01 T02110069  RH  040%=      5-min Rain = 0
KLO1 042334Z 00006KT 21/07 A3006 RMK A01 T02090069  RH  040%=      5-min Rain = 0
KLO1 042335Z 00008KT 21/07 A3006 RMK A01 T02080071  RH  041%=      5-min Rain = 0
KLO1 042336Z 00009KT 21/07 A3006 RMK A01 T02080070  RH  041%=      5-min Rain = 0
KLO1 042337Z 01007KT 21/07 A3006 RMK A01 T02080071  RH  041%=      5-min Rain = 0
KLO1 042338Z 02007KT 21/07 A3006 RMK A01 T02080071  RH  041%=      5-min Rain = 0
KLO1 042339Z 01006KT 21/07 A3006 RMK A01 T02080069  RH  041%=      5-min Rain = 0
KLO1 042340Z 35007KT 21/07 A3006 RMK A01 T02080069  RH  040%=      5-min Rain = 0
KLO1 042341Z 36008KT 21/07 A3006 RMK A01 T02080067  RH  040%=      5-min Rain = 0
KLO1 042342Z 01007KT 21/07 A3006 RMK A01 T02070068  RH  041%=      5-min Rain = 0
KLO1 042343Z 00007KT 21/07 A3006 RMK A01 T02070068  RH  040%=      5-min Rain = 0
KLO1 042344Z 01005KT 21/07 A3006 RMK A01 T02070065  RH  040%=      5-min Rain = 0
KLO1 042345Z 35006KT 21/07 A3006 RMK A01 T02070067  RH  040%=      5-min Rain = 0
KLO1 042346Z 34006KT 21/07 A3006 RMK A01 T02070070  RH  041%=      5-min Rain = 0
KLO1 042347Z 34004KT 21/07 A3007 RMK A01 T02080067  RH  040%=      5-min Rain = 0
KLO1 042348Z 35006KT 21/07 A3007 RMK A01 T02090071  RH  041%=      5-min Rain = 0
KLO1 042349Z 02006KT 21/07 A3007 RMK A01 T02090070  RH  040%=      5-min Rain = 0
KLO1 042350Z 04008KT 21/07 A3007 RMK A01 T02100071  RH  041%=      5-min Rain = 0
KLO1 042351Z 03008KT 21/07 A3007 RMK A01 T02100067  RH  040%=      5-min Rain = 0
KLO1 042352Z 03006KT 21/07 A3007 RMK A01 T02080065  RH  039%=      5-min Rain = 0
KLO1 042353Z 02007KT 21/07 A3007 RMK A01 T02070069  RH  041%=      5-min Rain = 0
KLO1 042354Z 03006KT 21/07 A3007 RMK A01 T02080071  RH  041%=      5-min Rain = 0
KLO1 042355Z 02006KT 21/07 A3007 RMK A01 T02080070  RH  041%=      5-min Rain = 0
KLO1 042356Z 00003KT 21/07 A3007 RMK A01 T02080070  RH  041%=      5-min Rain = 0
KLO1 042357Z 01007KT 21/07 A3007 RMK A01 T02080073  RH  042%=      5-min Rain = 0
KLO1 042358Z 01009KT 21/07 A3007 RMK A01 T02090069  RH  040%=      5-min Rain = 0
KLO1 042359Z 01007KT 21/07 A3007 RMK A01 T02090069  RH  040%=      5-min Rain = 0
KLO1 050000Z 01005KT 21/07 A3007 RMK A01 T02080067  RH  040%=      5-min Rain = 0
KLO1 050001Z 01006KT 21/07 A3007 RMK A01 T02070067  RH  040%=      5-min Rain = 0
KLO1 050002Z 01006KT 21/07 A3007 RMK A01 T02070070  RH  041%=      5-min Rain = 0
KLO1 050003Z 02006KT 21/07 A3007 RMK A01 T02070067  RH  040%=      5-min Rain = 0
KLO1 050004Z 03006KT 21/07 A3007 RMK A01 T02070070  RH  041%=      5-min Rain = 0
KLO1 050005Z 03004KT 21/07 A3007 RMK A01 T02070067  RH  040%=      5-min Rain = 0
KLO1 050006Z 03004KT 21/07 A3007 RMK A01 T02070068  RH  040%=      5-min Rain = 0
KLO1 050007Z 02007KT 21/07 A3007 RMK A01 T02070068  RH  040%=      5-min Rain = 0
KLO1 050008Z 01006KT 21/07 A3007 RMK A01 T02070069  RH  041%=      5-min Rain = 0
KLO1 050009Z 00005KT 21/07 A3007 RMK A01 T02080067  RH  040%=      5-min Rain = 0
KLO1 050010Z 01005KT 21/07 A3007 RMK A01 T02090066  RH  040%=      5-min Rain = 0
KLO1 050011Z 35007KT 21/07 A3007 RMK A01 T02080067  RH  040%=      5-min Rain = 0
KLO1 050012Z 33009KT 21/07 A3007 RMK A01 T02080066  RH  040%=      5-min Rain = 0
KLO1 050013Z 34008KT 21/07 A3007 RMK A01 T02080068  RH  040%=      5-min Rain = 0
KLO1 050014Z 33006KT 21/07 A3007 RMK A01 T02080066  RH  040%=      5-min Rain = 0
KLO1 050015Z 34007KT 21/07 A3007 RMK A01 T02070068  RH  040%=      5-min Rain = 0
KLO1 050016Z 34008KT 21/07 A3007 RMK A01 T02070070  RH  041%=      5-min Rain = 0
KLO1 050017Z 35008KT 21/07 A3007 RMK A01 T02070067  RH  040%=      5-min Rain = 0
KLO1 050018Z 00007KT 21/06 A3007 RMK A01 T02060064  RH  040%=      5-min Rain = 0
KLO1 050019Z 35006KT 21/07 A3007 RMK A01 T02050066  RH  040%=      5-min Rain = 0
KLO1 050020Z 35005KT 21/07 A3007 RMK A01 T02050065  RH  040%=      5-min Rain = 0
KLO1 050021Z 35006KT 21/07 A3007 RMK A01 T02050065  RH  040%=      5-min Rain = 0
KLO1 050022Z 34005KT 21/07 A3007 RMK A01 T02050068  RH  041%=      5-min Rain = 0
KLO1 050023Z 34004KT 21/07 A3007 RMK A01 T02050068  RH  041%=      5-min Rain = 0
KLO1 050024Z 32005KT 21/07 A3007 RMK A01 T02050071  RH  042%=      5-min Rain = 0
KLO1 050025Z 31003KT 21/07 A3007 RMK A01 T02060066  RH  040%=      5-min Rain = 0
KLO1 050026Z 31005KT 21/07 A3007 RMK A01 T02060070  RH  041%=      5-min Rain = 0
KLO1 050027Z 31005KT 21/07 A3007 RMK A01 T02060067  RH  040%=      5-min Rain = 0
KLO1 050028Z 34008KT 21/07 A3007 RMK A01 T02060069  RH  041%=      5-min Rain = 0
KLO1 050029Z 01007KT 21/07 A3007 RMK A01 T02060070  RH  041%=      5-min Rain = 0
KLO1 050030Z 02005KT 21/07 A3007 RMK A01 T02060068  RH  041%=      5-min Rain = 0
KLO1 050031Z 01005KT 21/07 A3007 RMK A01 T02060070  RH  041%=      5-min Rain = 0
KLO1 050032Z 02007KT 21/07 A3007 RMK A01 T02060072  RH  042%=      5-min Rain = 0
KLO1 050033Z 02006KT 21/07 A3007 RMK A01 T02060069  RH  041%=      5-min Rain = 0
KLO1 050034Z 01005KT 21/07 A3007 RMK A01 T02050068  RH  041%=      5-min Rain = 0
KLO1 050035Z 01005KT 21/07 A3007 RMK A01 T02050070  RH  042%=      5-min Rain = 0
KLO1 050036Z 02005KT 20/07 A3007 RMK A01 T02040068  RH  041%=      5-min Rain = 0
KLO1 050037Z 03005KT 20/07 A3007 RMK A01 T02040071  RH  042%=      5-min Rain = 0
KLO1 050038Z 03004KT 20/07 A3008 RMK A01 T02040074  RH  043%=      5-min Rain = 0
KLO1 050039Z 02005KT 20/07 A3008 RMK A01 T02040074  RH  043%=      5-min Rain = 0
KLO1 050040Z 01004KT 20/07 A3008 RMK A01 T02040069  RH  041%=      5-min Rain = 0
KLO1 050041Z 00004KT 20/07 A3008 RMK A01 T02040069  RH  042%=      5-min Rain = 0
KLO1 050042Z 02004KT 20/07 A3008 RMK A01 T02040072  RH  042%=      5-min Rain = 0
KLO1 050043Z 00004KT 20/07 A3008 RMK A01 T02040070  RH  042%=      5-min Rain = 0
KLO1 050044Z 01006KT 20/07 A3008 RMK A01 T02030073  RH  043%=      5-min Rain = 0
KLO1 050045Z 02006KT 20/07 A3008 RMK A01 T02030073  RH  043%=      5-min Rain = 0
KLO1 050046Z 03006KT 20/08 A3008 RMK A01 T02030077  RH  044%=      5-min Rain = 0
KLO1 050047Z 02007KT 20/08 A3008 RMK A01 T02030075  RH  044%=      5-min Rain = 0
KLO1 050048Z 03007KT 20/07 A3008 RMK A01 T02020072  RH  043%=      5-min Rain = 0
KLO1 050049Z 03005KT 20/07 A3008 RMK A01 T02020073  RH  043%=      5-min Rain = 0
KLO1 050050Z 02004KT 20/07 A3008 RMK A01 T02020071  RH  043%=      5-min Rain = 0
KLO1 050051Z 03004KT 20/08 A3008 RMK A01 T02010076  RH  044%=      5-min Rain = 0
KLO1 050052Z 04005KT 20/07 A3008 RMK A01 T02010074  RH  044%=      5-min Rain = 0
KLO1 050053Z 06005KT 20/07 A3008 RMK A01 T02010073  RH  044%=      5-min Rain = 0
KLO1 050054Z 06005KT 20/07 A3008 RMK A01 T02010073  RH  043%=      5-min Rain = 0
KLO1 050055Z 05005KT 20/07 A3008 RMK A01 T02010072  RH  043%=      5-min Rain = 0
KLO1 050056Z 05004KT 20/08 A3008 RMK A01 T02000075  RH  044%=      5-min Rain = 0
KLO1 050057Z 03004KT 20/08 A3008 RMK A01 T02000075  RH  044%=      5-min Rain = 0
KLO1 050058Z 03004KT 20/08 A3008 RMK A01 T02000076  RH  045%=      5-min Rain = 0
KLO1 050059Z 04003KT 20/08 A3008 RMK A01 T02000077  RH  045%=      5-min Rain = 0
KLO1 050100Z 05003KT 20/08 A3008 RMK A01 T01990078  RH  045%=      5-min Rain = 0
KLO1 050101Z 05003KT 20/08 A3008 RMK A01 T01990077  RH  045%=      5-min Rain = 0
KLO1 050102Z 05004KT 20/08 A3008 RMK A01 T01990075  RH  045%=      5-min Rain = 0
KLO1 050103Z 05004KT 20/08 A3008 RMK A01 T01980075  RH  045%=      5-min Rain = 0
KLO1 050104Z 05005KT 20/08 A3008 RMK A01 T01980075  RH  045%=      5-min Rain = 0
KLO1 050105Z 06005KT 20/08 A3008 RMK A01 T01970075  RH  045%=      5-min Rain = 0
KLO1 050106Z 06005KT 20/08 A3008 RMK A01 T01970077  RH  046%=      5-min Rain = 0
KLO1 050107Z 06004KT 20/08 A3008 RMK A01 T01960077  RH  046%=      5-min Rain = 0
KLO1 050108Z 06005KT 20/08 A3008 RMK A01 T01950078  RH  047%=      5-min Rain = 0
KLO1 050109Z 07004KT 20/08 A3008 RMK A01 T01950077  RH  047%=      5-min Rain = 0
KLO1 050110Z 05004KT 19/08 A3008 RMK A01 T01940079  RH  047%=      5-min Rain = 0
KLO1 050111Z 05004KT 19/08 A3008 RMK A01 T01930080  RH  048%=      5-min Rain = 0
KLO1 050112Z 05004KT 19/08 A3008 RMK A01 T01930080  RH  048%=      5-min Rain = 0
KLO1 050113Z 05004KT 19/08 A3008 RMK A01 T01920078  RH  048%=      5-min Rain = 0
KLO1 050114Z 06004KT 19/08 A3008 RMK A01 T01920079  RH  048%=      5-min Rain = 0
KLO1 050115Z 06004KT 19/08 A3008 RMK A01 T01920079  RH  048%=      5-min Rain = 0
KLO1 050116Z 06004KT 19/08 A3008 RMK A01 T01910080  RH  048%=      5-min Rain = 0
KLO1 050117Z 06003KT 19/08 A3008 RMK A01 T01900080  RH  049%=      5-min Rain = 0
KLO1 050118Z 06003KT 19/08 A3008 RMK A01 T01900079  RH  048%=      5-min Rain = 0
KLO1 050119Z 06003KT 19/08 A3008 RMK A01 T01900080  RH  049%=      5-min Rain = 0
KLO1 050120Z 07003KT 19/08 A3008 RMK A01 T01890080  RH  049%=      5-min Rain = 0
KLO1 050121Z 06003KT 19/08 A3008 RMK A01 T01890079  RH  049%=      5-min Rain = 0
KLO1 050122Z 06003KT 19/08 A3008 RMK A01 T01890081  RH  049%=      5-min Rain = 0
KLO1 050123Z 06003KT 19/08 A3008 RMK A01 T01890081  RH  049%=      5-min Rain = 0
KLO1 050124Z 07003KT 19/08 A3008 RMK A01 T01890081  RH  049%=      5-min Rain = 0
KLO1 050125Z 07004KT 19/08 A3008 RMK A01 T01880078  RH  049%=      5-min Rain = 0
KLO1 050126Z 07004KT 19/08 A3008 RMK A01 T01880080  RH  049%=      5-min Rain = 0
KLO1 050127Z 08004KT 19/08 A3008 RMK A01 T01880083  RH  050%=      5-min Rain = 0
KLO1 050128Z 08004KT 19/08 A3008 RMK A01 T01870081  RH  050%=      5-min Rain = 0
KLO1 050129Z 08004KT 19/08 A3008 RMK A01 T01870080  RH  050%=      5-min Rain = 0
KLO1 050130Z 08004KT 19/08 A3008 RMK A01 T01860081  RH  050%=      5-min Rain = 0
KLO1 050131Z 08004KT 19/08 A3008 RMK A01 T01860083  RH  051%=      5-min Rain = 0
KLO1 050132Z 08005KT 19/08 A3008 RMK A01 T01860084  RH  051%=      5-min Rain = 0
KLO1 050133Z 08004KT 19/08 A3008 RMK A01 T01850083  RH  051%=      5-min Rain = 0
KLO1 050134Z 08004KT 19/08 A3008 RMK A01 T01850084  RH  052%=      5-min Rain = 0
KLO1 050135Z 08004KT 18/08 A3008 RMK A01 T01840083  RH  052%=      5-min Rain = 0
KLO1 050136Z 09005KT 18/08 A3008 RMK A01 T01840084  RH  052%=      5-min Rain = 0
KLO1 050137Z 09005KT 18/08 A3008 RMK A01 T01830084  RH  052%=      5-min Rain = 0
KLO1 050138Z 09006KT 18/08 A3008 RMK A01 T01820084  RH  053%=      5-min Rain = 0
KLO1 050139Z 09005KT 18/09 A3008 RMK A01 T01820085  RH  053%=      5-min Rain = 0
KLO1 050140Z 09005KT 18/09 A3008 RMK A01 T01810085  RH  053%=      5-min Rain = 0
KLO1 050141Z 09004KT 18/08 A3009 RMK A01 T01810084  RH  053%=      5-min Rain = 0
KLO1 050142Z 08004KT 18/09 A3009 RMK A01 T01800085  RH  054%=      5-min Rain = 0
KLO1 050143Z 08004KT 18/09 A3009 RMK A01 T01800085  RH  054%=      5-min Rain = 0
KLO1 050144Z 08004KT 18/09 A3009 RMK A01 T01800086  RH  054%=      5-min Rain = 0
KLO1 050145Z 08004KT 18/09 A3009 RMK A01 T01790085  RH  054%=      5-min Rain = 0
KLO1 050146Z 08004KT 18/09 A3009 RMK A01 T01780085  RH  054%=      5-min Rain = 0
KLO1 050147Z 09005KT 18/09 A3009 RMK A01 T01780085  RH  054%=      5-min Rain = 0
KLO1 050148Z 09004KT 18/09 A3009 RMK A01 T01780085  RH  055%=      5-min Rain = 0
KLO1 050149Z 09005KT 18/09 A3009 RMK A01 T01770086  RH  055%=      5-min Rain = 0
KLO1 050150Z 09004KT 18/09 A3009 RMK A01 T01770087  RH  056%=      5-min Rain = 0
KLO1 050151Z 09004KT 18/09 A3009 RMK A01 T01770088  RH  056%=      5-min Rain = 0
KLO1 050152Z 08004KT 18/09 A3009 RMK A01 T01760087  RH  056%=      5-min Rain = 0
KLO1 050153Z 08004KT 18/09 A3009 RMK A01 T01760086  RH  055%=      5-min Rain = 0
KLO1 050154Z 08004KT 18/09 A3009 RMK A01 T01760087  RH  056%=      5-min Rain = 0
KLO1 050155Z 08005KT 18/09 A3009 RMK A01 T01750087  RH  056%=      5-min Rain = 0
KLO1 050156Z 08004KT 18/09 A3009 RMK A01 T01750088  RH  057%=      5-min Rain = 0
KLO1 050157Z 08005KT 18/09 A3009 RMK A01 T01750087  RH  056%=      5-min Rain = 0
KLO1 050158Z 08005KT 18/09 A3009 RMK A01 T01750087  RH  056%=      5-min Rain = 0
KLO1 050159Z 08004KT 18/09 A3009 RMK A01 T01750087  RH  056%=      5-min Rain = 0
KLO1 050200Z 08005KT 18/09 A3009 RMK A01 T01750086  RH  056%=      5-min Rain = 0
KLO1 050201Z 08005KT 18/09 A3009 RMK A01 T01750085  RH  056%=      5-min Rain = 0
KLO1 050202Z 08005KT 18/09 A3009 RMK A01 T01750086  RH  056%=      5-min Rain = 0
KLO1 050203Z 08004KT 18/09 A3009 RMK A01 T01750087  RH  056%=      5-min Rain = 0
KLO1 050204Z 07004KT 18/09 A3009 RMK A01 T01750086  RH  056%=      5-min Rain = 0
KLO1 050205Z 07004KT 17/09 A3009 RMK A01 T01740087  RH  056%=      5-min Rain = 0
KLO1 050206Z 07004KT 17/09 A3009 RMK A01 T01740085  RH  056%=      5-min Rain = 0
KLO1 050207Z 07004KT 17/09 A3009 RMK A01 T01730086  RH  056%=      5-min Rain = 0
KLO1 050208Z 07004KT 17/09 A3009 RMK A01 T01730087  RH  057%=      5-min Rain = 0
KLO1 050209Z 07004KT 17/09 A3009 RMK A01 T01720086  RH  057%=      5-min Rain = 0
KLO1 050210Z 08004KT 17/09 A3009 RMK A01 T01720085  RH  057%=      5-min Rain = 0
KLO1 050211Z 08004KT 17/09 A3009 RMK A01 T01720085  RH  057%=      5-min Rain = 0
KLO1 050212Z 08004KT 17/08 A3009 RMK A01 T01720084  RH  056%=      5-min Rain = 0
KLO1 050213Z 08004KT 17/09 A3009 RMK A01 T01720085  RH  056%=      5-min Rain = 0
KLO1 050214Z 08004KT 17/08 A3009 RMK A01 T01720084  RH  056%=      5-min Rain = 0
KLO1 050215Z 08004KT 17/08 A3009 RMK A01 T01720084  RH  056%=      5-min Rain = 0
KLO1 050216Z 08003KT 17/09 A3009 RMK A01 T01720085  RH  056%=      5-min Rain = 0
KLO1 050217Z 08003KT 17/09 A301 RMK A01 T01720085  RH  056%=      5-min Rain = 0
KLO1 050218Z 08003KT 17/09 A301 RMK A01 T01720085  RH  057%=      5-min Rain = 0
KLO1 050219Z 08003KT 17/09 A301 RMK A01 T01720086  RH  057%=      5-min Rain = 0
KLO1 050220Z 08003KT 17/09 A301 RMK A01 T01720086  RH  057%=      5-min Rain = 0
KLO1 050221Z 08003KT 17/09 A301 RMK A01 T01720086  RH  057%=      5-min Rain = 0
KLO1 050222Z 08004KT 17/09 A301 RMK A01 T01720086  RH  057%=      5-min Rain = 0
KLO1 050223Z 08004KT 17/09 A301 RMK A01 T01720086  RH  057%=      5-min Rain = 0
KLO1 050224Z 08003KT 17/09 A301 RMK A01 T01720087  RH  057%=      5-min Rain = 0
KLO1 050225Z 08003KT 17/09 A301 RMK A01 T01710085  RH  057%=      5-min Rain = 0
KLO1 050226Z 08003KT 17/08 A301 RMK A01 T01710084  RH  057%=      5-min Rain = 0
KLO1 050227Z 08003KT 17/08 A301 RMK A01 T01710084  RH  056%=      5-min Rain = 0
KLO1 050228Z 08003KT 17/08 A301 RMK A01 T01710084  RH  056%=      5-min Rain = 0
KLO1 050229Z 08003KT 17/08 A301 RMK A01 T01710084  RH  056%=      5-min Rain = 0
KLO1 050230Z 09004KT 17/08 A301 RMK A01 T01710084  RH  057%=      5-min Rain = 0
KLO1 050231Z 09004KT 17/09 A301 RMK A01 T01710086  RH  057%=      5-min Rain = 0
KLO1 050232Z 09004KT 17/09 A301 RMK A01 T01710087  RH  058%=      5-min Rain = 0
KLO1 050233Z 09004KT 17/09 A301 RMK A01 T01700088  RH  058%=      5-min Rain = 0
KLO1 050234Z 09004KT 17/09 A301 RMK A01 T01700088  RH  059%=      5-min Rain = 0
KLO1 050235Z 09004KT 17/09 A301 RMK A01 T01690087  RH  058%=      5-min Rain = 0
KLO1 050236Z 09004KT 17/09 A301 RMK A01 T01690089  RH  059%=      5-min Rain = 0
KLO1 050237Z 09004KT 17/09 A301 RMK A01 T01690090  RH  060%=      5-min Rain = 0
KLO1 050238Z 09004KT 17/09 A301 RMK A01 T01690092  RH  060%=      5-min Rain = 0
KLO1 050239Z 09004KT 17/09 A301 RMK A01 T01680092  RH  061%=      5-min Rain = 0
KLO1 050240Z 09004KT 17/09 A301 RMK A01 T01670092  RH  061%=      5-min Rain = 0
KLO1 050241Z 09004KT 17/09 A3011 RMK A01 T01660091  RH  061%=      5-min Rain = 0
KLO1 050242Z 09004KT 17/09 A3011 RMK A01 T01660091  RH  061%=      5-min Rain = 0
KLO1 050243Z 09004KT 17/09 A3011 RMK A01 T01660090  RH  061%=      5-min Rain = 0
KLO1 050244Z 09004KT 17/09 A3011 RMK A01 T01650090  RH  061%=      5-min Rain = 0
KLO1 050245Z 09004KT 17/09 A3011 RMK A01 T01650090  RH  061%=      5-min Rain = 0
KLO1 050246Z 09004KT 16/09 A3011 RMK A01 T01640089  RH  061%=      5-min Rain = 0
KLO1 050247Z 09004KT 16/09 A3011 RMK A01 T01640091  RH  062%=      5-min Rain = 0
KLO1 050248Z 09004KT 16/09 A3011 RMK A01 T01630089  RH  061%=      5-min Rain = 0
KLO1 050249Z 09004KT 16/09 A3011 RMK A01 T01640089  RH  061%=      5-min Rain = 0
KLO1 050250Z 09004KT 16/09 A3011 RMK A01 T01630089  RH  062%=      5-min Rain = 0
KLO1 050251Z 09004KT 16/09 A3011 RMK A01 T01640090  RH  062%=      5-min Rain = 0
KLO1 050252Z 10004KT 16/09 A3011 RMK A01 T01630091  RH  062%=      5-min Rain = 0
KLO1 050253Z 10004KT 16/09 A3011 RMK A01 T01640092  RH  063%=      5-min Rain = 0
KLO1 050254Z 10004KT 16/09 A3011 RMK A01 T01630092  RH  063%=      5-min Rain = 0
KLO1 050255Z 10004KT 16/09 A3011 RMK A01 T01630092  RH  063%=      5-min Rain = 0
KLO1 050256Z 10004KT 16/09 A3011 RMK A01 T01630093  RH  063%=      5-min Rain = 0
KLO1 050257Z 10004KT 16/09 A3011 RMK A01 T01630094  RH  064%=      5-min Rain = 0
KLO1 050258Z 10004KT 16/09 A3011 RMK A01 T01620094  RH  064%=      5-min Rain = 0
KLO1 050259Z 10004KT 16/09 A3011 RMK A01 T01620094  RH  064%=      5-min Rain = 0
KLO1 050300Z 10004KT 16/10 A3011 RMK A01 T01620095  RH  064%=      5-min Rain = 0
KLO1 050301Z 10004KT 16/10 A3011 RMK A01 T01620095  RH  064%=      5-min Rain = 0
KLO1 050302Z 10004KT 16/10 A3011 RMK A01 T01610095  RH  065%=      5-min Rain = 0
KLO1 050303Z 10004KT 16/10 A3011 RMK A01 T01610095  RH  065%=      5-min Rain = 0
KLO1 050304Z 10004KT 16/10 A3012 RMK A01 T01610096  RH  066%=      5-min Rain = 0
KLO1 050305Z 10004KT 16/10 A3012 RMK A01 T01600098  RH  066%=      5-min Rain = 0
KLO1 050306Z 10004KT 16/10 A3012 RMK A01 T01600098  RH  067%=      5-min Rain = 0
KLO1 050307Z 10004KT 16/10 A3012 RMK A01 T01590098  RH  067%=      5-min Rain = 0
KLO1 050308Z 10004KT 16/10 A3012 RMK A01 T01590098  RH  067%=      5-min Rain = 0
KLO1 050309Z 10004KT 16/10 A3012 RMK A01 T01590098  RH  067%=      5-min Rain = 0
KLO1 050310Z 10004KT 16/10 A3012 RMK A01 T01590098  RH  067%=      5-min Rain = 0
KLO1 050311Z 10004KT 16/10 A3012 RMK A01 T01590098  RH  067%=      5-min Rain = 0
KLO1 050312Z 10004KT 16/10 A3012 RMK A01 T01590098  RH  067%=      5-min Rain = 0
KLO1 050313Z 10004KT 16/10 A3012 RMK A01 T01590099  RH  067%=      5-min Rain = 0
KLO1 050314Z 10004KT 16/10 A3012 RMK A01 T01580099  RH  068%=      5-min Rain = 0
KLO1 050315Z 10004KT 16/10 A3012 RMK A01 T01580100  RH  068%=      5-min Rain = 0
KLO1 050316Z 10004KT 16/10 A3012 RMK A01 T01570100  RH  069%=      5-min Rain = 0
KLO1 050317Z 10004KT 16/10 A3012 RMK A01 T01570099  RH  068%=      5-min Rain = 0
KLO1 050318Z 10004KT 16/10 A3012 RMK A01 T01570099  RH  068%=      5-min Rain = 0
KLO1 050319Z 10004KT 16/10 A3012 RMK A01 T01570099  RH  068%=      5-min Rain = 0
KLO1 050320Z 09003KT 16/10 A3012 RMK A01 T01570100  RH  069%=      5-min Rain = 0
KLO1 050321Z 10004KT 16/10 A3012 RMK A01 T01570099  RH  068%=      5-min Rain = 0
KLO1 050322Z 10004KT 16/10 A3012 RMK A01 T01560098  RH  068%=      5-min Rain = 0
KLO1 050323Z 10004KT 16/10 A3012 RMK A01 T01560099  RH  069%=      5-min Rain = 0
KLO1 050324Z 11004KT 16/10 A3012 RMK A01 T01560099  RH  069%=      5-min Rain = 0
KLO1 050325Z 12004KT 16/10 A3012 RMK A01 T01560098  RH  068%=      5-min Rain = 0
KLO1 050326Z 11004KT 16/10 A3012 RMK A01 T01560099  RH  069%=      5-min Rain = 0
KLO1 050327Z 10004KT 16/10 A3012 RMK A01 T01570099  RH  069%=      5-min Rain = 0
KLO1 050328Z 11004KT 16/10 A3012 RMK A01 T01570100  RH  069%=      5-min Rain = 0
KLO1 050329Z 11003KT 16/10 A3012 RMK A01 T01560099  RH  069%=      5-min Rain = 0
KLO1 050330Z 11003KT 16/10 A3012 RMK A01 T01560098  RH  068%=      5-min Rain = 0
KLO1 050331Z 11003KT 16/10 A3012 RMK A01 T01560098  RH  068%=      5-min Rain = 0
KLO1 050332Z 11003KT 16/10 A3012 RMK A01 T01560098  RH  068%=      5-min Rain = 0
KLO1 050333Z 11003KT 16/10 A3012 RMK A01 T01560097  RH  068%=      5-min Rain = 0
KLO1 050334Z 11003KT 16/10 A3012 RMK A01 T01560097  RH  068%=      5-min Rain = 0
KLO1 050335Z 11003KT 16/10 A3012 RMK A01 T01560098  RH  068%=      5-min Rain = 0
KLO1 050336Z 10003KT 16/10 A3012 RMK A01 T01560099  RH  069%=      5-min Rain = 0
KLO1 050337Z 10004KT 16/10 A3012 RMK A01 T01560099  RH  069%=      5-min Rain = 0
KLO1 050338Z 10004KT 16/10 A3012 RMK A01 T01550099  RH  069%=      5-min Rain = 0
KLO1 050339Z 10004KT 16/10 A3012 RMK A01 T01550100  RH  070%=      5-min Rain = 0
KLO1 050340Z 10005KT 16/10 A3012 RMK A01 T01550100  RH  070%=      5-min Rain = 0
KLO1 050341Z 10005KT 15/10 A3012 RMK A01 T01540100  RH  070%=      5-min Rain = 0
KLO1 050342Z 11005KT 15/10 A3012 RMK A01 T01540099  RH  070%=      5-min Rain = 0
KLO1 050343Z 11005KT 15/10 A3012 RMK A01 T01540098  RH  069%=      5-min Rain = 0
KLO1 050344Z 11005KT 16/10 A3012 RMK A01 T01550098  RH  069%=      5-min Rain = 0
KLO1 050345Z 12004KT 16/10 A3012 RMK A01 T01550098  RH  069%=      5-min Rain = 0
KLO1 050346Z 12004KT 16/10 A3012 RMK A01 T01550098  RH  069%=      5-min Rain = 0
KLO1 050347Z 12004KT 16/10 A3012 RMK A01 T01550099  RH  069%=      5-min Rain = 0
KLO1 050348Z 12004KT 16/10 A3012 RMK A01 T01550100  RH  069%=      5-min Rain = 0
KLO1 050349Z 12004KT 16/10 A3012 RMK A01 T01550100  RH  070%=      5-min Rain = 0
KLO1 050350Z 12004KT 15/10 A3013 RMK A01 T01540101  RH  070%=      5-min Rain = 0
KLO1 050351Z 13004KT 15/10 A3013 RMK A01 T01540101  RH  071%=      5-min Rain = 0
KLO1 050352Z 13004KT 15/10 A3013 RMK A01 T01530100  RH  071%=      5-min Rain = 0
KLO1 050353Z 12005KT 15/10 A3013 RMK A01 T01530100  RH  071%=      5-min Rain = 0
KLO1 050354Z 12005KT 15/10 A3013 RMK A01 T01520100  RH  071%=      5-min Rain = 0
KLO1 050355Z 12005KT 15/10 A3013 RMK A01 T01520099  RH  070%=      5-min Rain = 0
KLO1 050356Z 13005KT 15/10 A3013 RMK A01 T01520099  RH  070%=      5-min Rain = 0
KLO1 050357Z 13005KT 15/10 A3013 RMK A01 T01520100  RH  071%=      5-min Rain = 0
KLO1 050358Z 13005KT 15/10 A3013 RMK A01 T01520100  RH  071%=      5-min Rain = 0
KLO1 050359Z 13005KT 15/10 A3013 RMK A01 T01520100  RH  071%=      5-min Rain = 0
KLO1 050400Z 13005KT 15/10 A3013 RMK A01 T01520101  RH  072%=      5-min Rain = 0
KLO1 050401Z 13004KT 15/10 A3013 RMK A01 T01520101  RH  072%=      5-min Rain = 0
KLO1 050402Z 13005KT 15/10 A3013 RMK A01 T01510101  RH  072%=      5-min Rain = 0
KLO1 050403Z 13005KT 15/10 A3013 RMK A01 T01510102  RH  072%=      5-min Rain = 0
KLO1 050404Z 13005KT 15/10 A3013 RMK A01 T01510101  RH  072%=      5-min Rain = 0
KLO1 050405Z 14005KT 15/10 A3013 RMK A01 T01510101  RH  072%=      5-min Rain = 0
KLO1 050406Z 14005KT 15/10 A3013 RMK A01 T01510102  RH  072%=      5-min Rain = 0
KLO1 050407Z 14005KT 15/10 A3013 RMK A01 T01510101  RH  072%=      5-min Rain = 0
KLO1 050408Z 14005KT 15/10 A3013 RMK A01 T01510102  RH  073%=      5-min Rain = 0
KLO1 050409Z 14005KT 15/10 A3013 RMK A01 T01500103  RH  073%=      5-min Rain = 0
KLO1 050410Z 13005KT 15/10 A3013 RMK A01 T01490103  RH  074%=      5-min Rain = 0
KLO1 050411Z 13005KT 15/10 A3013 RMK A01 T01490103  RH  074%=      5-min Rain = 0
KLO1 050412Z 13005KT 15/10 A3013 RMK A01 T01480103  RH  074%=      5-min Rain = 0
KLO1 050413Z 13005KT 15/10 A3013 RMK A01 T01480103  RH  074%=      5-min Rain = 0
KLO1 050414Z 13005KT 15/10 A3013 RMK A01 T01480103  RH  075%=      5-min Rain = 0
KLO1 050415Z 13005KT 15/10 A3013 RMK A01 T01470103  RH  075%=      5-min Rain = 0
KLO1 050416Z 13005KT 15/10 A3013 RMK A01 T01470102  RH  074%=      5-min Rain = 0
KLO1 050417Z 13006KT 15/10 A3013 RMK A01 T01470101  RH  074%=      5-min Rain = 0
KLO1 050418Z 13005KT 15/10 A3013 RMK A01 T01470101  RH  074%=      5-min Rain = 0
KLO1 050419Z 12006KT 15/10 A3013 RMK A01 T01470101  RH  074%=      5-min Rain = 0
KLO1 050420Z 12006KT 15/10 A3013 RMK A01 T01470101  RH  074%=      5-min Rain = 0
KLO1 050421Z 13006KT 15/10 A3013 RMK A01 T01470100  RH  073%=      5-min Rain = 0
KLO1 050422Z 13005KT 15/10 A3013 RMK A01 T01470101  RH  073%=      5-min Rain = 0
KLO1 050423Z 13006KT 15/10 A3013 RMK A01 T01470101  RH  074%=      5-min Rain = 0
KLO1 050424Z 13005KT 15/10 A3013 RMK A01 T01470101  RH  073%=      5-min Rain = 0
KLO1 050425Z 13005KT 15/10 A3013 RMK A01 T01470101  RH  073%=      5-min Rain = 0
KLO1 050426Z 13005KT 15/10 A3013 RMK A01 T01470100  RH  073%=      5-min Rain = 0
KLO1 050427Z 13005KT 15/10 A3013 RMK A01 T01470100  RH  073%=      5-min Rain = 0
KLO1 050428Z 13004KT 15/10 A3013 RMK A01 T01470100  RH  073%=      5-min Rain = 0
KLO1 050429Z 13004KT 15/10 A3013 RMK A01 T01470100  RH  073%=      5-min Rain = 0
KLO1 050430Z 14004KT 15/10 A3013 RMK A01 T01470099  RH  073%=      5-min Rain = 0
KLO1 050431Z 14004KT 15/10 A3013 RMK A01 T01470100  RH  074%=      5-min Rain = 0
KLO1 050432Z 14004KT 15/10 A3013 RMK A01 T01470100  RH  074%=      5-min Rain = 0
KLO1 050433Z 14004KT 15/10 A3013 RMK A01 T01460101  RH  074%=      5-min Rain = 0
KLO1 050434Z 14004KT 15/10 A3013 RMK A01 T01460100  RH  074%=      5-min Rain = 0
KLO1 050435Z 14004KT 15/10 A3013 RMK A01 T01450101  RH  074%=      5-min Rain = 0
KLO1 050436Z 14004KT 15/10 A3013 RMK A01 T01450100  RH  074%=      5-min Rain = 0
KLO1 050437Z 14005KT 15/10 A3013 RMK A01 T01450101  RH  075%=      5-min Rain = 0
KLO1 050438Z 14005KT 15/10 A3013 RMK A01 T01450100  RH  075%=      5-min Rain = 0
KLO1 050439Z 14005KT 15/10 A3013 RMK A01 T01450100  RH  074%=      5-min Rain = 0
KLO1 050440Z 14005KT 15/10 A3013 RMK A01 T01450099  RH  074%=      5-min Rain = 0
KLO1 050441Z 14005KT 15/10 A3013 RMK A01 T01450099  RH  074%=      5-min Rain = 0
KLO1 050442Z 14004KT 14/10 A3013 RMK A01 T01440099  RH  074%=      5-min Rain = 0
KLO1 050443Z 14004KT 14/10 A3013 RMK A01 T01440098  RH  074%=      5-min Rain = 0
KLO1 050444Z 14003KT 14/10 A3013 RMK A01 T01440098  RH  074%=      5-min Rain = 0
KLO1 050445Z 14003KT 14/10 A3013 RMK A01 T01440099  RH  074%=      5-min Rain = 0
KLO1 050446Z 13003KT 14/10 A3013 RMK A01 T01440100  RH  075%=      5-min Rain = 0
KLO1 050447Z 13003KT 14/10 A3013 RMK A01 T01440100  RH  075%=      5-min Rain = 0
KLO1 050448Z 13003KT 14/10 A3013 RMK A01 T01430100  RH  075%=      5-min Rain = 0
KLO1 050449Z 13003KT 14/10 A3013 RMK A01 T01430100  RH  075%=      5-min Rain = 0
KLO1 050450Z 13003KT 14/10 A3013 RMK A01 T01430099  RH  075%=      5-min Rain = 0
KLO1 050451Z 13003KT 14/10 A3013 RMK A01 T01430099  RH  075%=      5-min Rain = 0
KLO1 050452Z 13003KT 14/10 A3013 RMK A01 T01430099  RH  075%=      5-min Rain = 0
KLO1 050453Z 13003KT 14/10 A3013 RMK A01 T01430098  RH  074%=      5-min Rain = 0
KLO1 050454Z 13003KT 14/10 A3013 RMK A01 T01430098  RH  074%=      5-min Rain = 0
KLO1 050455Z 13004KT 14/10 A3013 RMK A01 T01430098  RH  075%=      5-min Rain = 0
KLO1 050456Z 13004KT 14/10 A3013 RMK A01 T01430098  RH  075%=      5-min Rain = 0
KLO1 050457Z 13004KT 14/10 A3013 RMK A01 T01430099  RH  075%=      5-min Rain = 0
KLO1 050458Z 13004KT 14/10 A3013 RMK A01 T01430099  RH  075%=      5-min Rain = 0
KLO1 050459Z 13004KT 14/10 A3013 RMK A01 T01420099  RH  075%=      5-min Rain = 0

Page generated in 0.0649 seconds.